AIC130 EGLL-VABB
Flight info
| Callsign | AIC130 |
|---|---|
| Flight time | N/A |
| Altitude | 35000 |
| Route | DET L6 DVR UL9 KONAN DCT KOK DCT KOMOB DCT PITES DCT BABEG DCT KUMOM DCT VEKEN DCT ELTIB DCT AKIKA DCT MAVAR DCT BITLA UN132 KEA UL607 PAXIS L607 NABSI/N0478F370 P557 OBRAN L321 REXUM M872 PMA Y214 RAPMA DCT MEVDO DCT ALROK DCT DEBIN/N0482F390 DCT MIDGU M440 TULBU N881 AMBOS M700 PARAR N571 SUGID KETOR2A |
| Aircraft | B77L/H-SDE1E2E3FGHIJ2J3J4J5M1RWXY/LB1D1 |
Departure
| Time | 2026-05-05 15:48 |
|---|---|
| Airport | London Heathrow Airport (EGLL) |
Arrival
| Time | N/A |
|---|---|
| Airport | Chhatrapati Shivaji Maharaj International Airport (VABB) |
| Time | Latitude | Longitude | Altitude | Speed | Heading |
|---|---|---|---|---|---|
| 2026-05-05 15:05 | 51.47340 | -0.44212 | 77 ft | 0 kts | 270° |
| 2026-05-05 15:34 | 51.47340 | -0.44205 | 91 ft | 3 kts | 270° |
| 2026-05-05 15:34 | 51.47340 | -0.44175 | 100 ft | 3 kts | 270° |
| 2026-05-05 15:34 | 51.47340 | -0.44145 | 94 ft | 3 kts | 270° |
| 2026-05-05 15:34 | 51.47340 | -0.44116 | 94 ft | 3 kts | 270° |
| 2026-05-05 15:35 | 51.47340 | -0.44087 | 94 ft | 3 kts | 269° |
| 2026-05-05 15:35 | 51.47340 | -0.44058 | 94 ft | 3 kts | 269° |
| 2026-05-05 15:35 | 51.47340 | -0.44040 | 94 ft | 0 kts | 269° |
| 2026-05-05 15:36 | 51.47337 | -0.44059 | 95 ft | 6 kts | 250° |
| 2026-05-05 15:36 | 51.47326 | -0.44071 | 92 ft | 1 kts | 195° |
| 2026-05-05 15:36 | 51.47315 | -0.44068 | 94 ft | 3 kts | 176° |
| 2026-05-05 15:36 | 51.47281 | -0.44065 | 92 ft | 12 kts | 176° |
| 2026-05-05 15:37 | 51.47147 | -0.44059 | 95 ft | 21 kts | 179° |
| 2026-05-05 15:37 | 51.47001 | -0.44058 | 91 ft | 21 kts | 180° |
| 2026-05-05 15:37 | 51.46898 | -0.44057 | 95 ft | 21 kts | 180° |
| 2026-05-05 15:37 | 51.46776 | -0.44074 | 92 ft | 8 kts | 213° |
| 2026-05-05 15:38 | 51.46756 | -0.44178 | 94 ft | 14 kts | 269° |
| 2026-05-05 15:38 | 51.46754 | -0.44335 | 94 ft | 14 kts | 269° |
| 2026-05-05 15:38 | 51.46752 | -0.44495 | 91 ft | 14 kts | 270° |
| 2026-05-05 15:38 | 51.46752 | -0.44654 | 91 ft | 14 kts | 270° |
| 2026-05-05 15:39 | 51.46751 | -0.44813 | 91 ft | 14 kts | 270° |
| 2026-05-05 15:39 | 51.46751 | -0.44964 | 91 ft | 18 kts | 270° |
| 2026-05-05 15:39 | 51.46750 | -0.45243 | 91 ft | 29 kts | 270° |
| 2026-05-05 15:39 | 51.46749 | -0.45590 | 91 ft | 34 kts | 270° |
| 2026-05-05 15:40 | 51.46749 | -0.45957 | 94 ft | 31 kts | 269° |
| 2026-05-05 15:40 | 51.46748 | -0.46314 | 95 ft | 32 kts | 270° |
| 2026-05-05 15:40 | 51.46747 | -0.46627 | 95 ft | 22 kts | 269° |
| 2026-05-05 15:40 | 51.46747 | -0.46733 | 95 ft | 2 kts | 270° |
| 2026-05-05 15:41 | 51.46748 | -0.46827 | 95 ft | 19 kts | 270° |
| 2026-05-05 15:41 | 51.46747 | -0.47013 | 95 ft | 20 kts | 269° |
| 2026-05-05 15:41 | 51.46745 | -0.47211 | 95 ft | 20 kts | 269° |
| 2026-05-05 15:41 | 51.46745 | -0.47422 | 94 ft | 18 kts | 270° |
| 2026-05-05 15:42 | 51.46745 | -0.47628 | 94 ft | 18 kts | 270° |
| 2026-05-05 15:42 | 51.46744 | -0.47816 | 91 ft | 3 kts | 269° |
| 2026-05-05 15:42 | 51.46744 | -0.47851 | 91 ft | 3 kts | 269° |
| 2026-05-05 15:42 | 51.46743 | -0.47886 | 92 ft | 3 kts | 269° |
| 2026-05-05 15:43 | 51.46743 | -0.47928 | 91 ft | 6 kts | 269° |
| 2026-05-05 15:43 | 51.46742 | -0.48063 | 91 ft | 15 kts | 270° |
| 2026-05-05 15:43 | 51.46742 | -0.48126 | 91 ft | 7 kts | 270° |
| 2026-05-05 15:43 | 51.46743 | -0.48204 | 91 ft | 7 kts | 270° |
| 2026-05-05 15:44 | 51.46741 | -0.48283 | 91 ft | 7 kts | 269° |
| 2026-05-05 15:44 | 51.46741 | -0.48362 | 91 ft | 7 kts | 270° |
| 2026-05-05 15:44 | 51.46741 | -0.48378 | 91 ft | 0 kts | 269° |
| 2026-05-05 15:45 | 51.46741 | -0.48383 | 91 ft | 4 kts | 269° |
| 2026-05-05 15:45 | 51.46727 | -0.48448 | 96 ft | 7 kts | 231° |
| 2026-05-05 15:45 | 51.46684 | -0.48468 | 95 ft | 7 kts | 182° |
| 2026-05-05 15:45 | 51.46637 | -0.48470 | 92 ft | 7 kts | 180° |
| 2026-05-05 15:46 | 51.46606 | -0.48470 | 92 ft | 0 kts | 180° |
| 2026-05-05 15:46 | 51.46576 | -0.48470 | 92 ft | 11 kts | 180° |
| 2026-05-05 15:46 | 51.46507 | -0.48455 | 96 ft | 9 kts | 154° |
| 2026-05-05 15:46 | 51.46477 | -0.48377 | 97 ft | 7 kts | 94° |
| 2026-05-05 15:47 | 51.46479 | -0.48296 | 93 ft | 3 kts | 90° |
| 2026-05-05 15:47 | 51.46479 | -0.48295 | 93 ft | 0 kts | 90° |
| 2026-05-05 15:47 | 51.46479 | -0.48277 | 93 ft | 11 kts | 90° |
| 2026-05-05 15:48 | 51.46479 | -0.47896 | 91 ft | 70 kts | 90° |
| 2026-05-05 15:48 | 51.46485 | -0.46680 | 96 ft | 146 kts | 89° |
| 2026-05-05 15:48 | 51.46485 | -0.44741 | 301 ft | 189 kts | 87° |
| 2026-05-05 15:48 | 51.46482 | -0.42631 | 1314 ft | 177 kts | 89° |
| 2026-05-05 15:49 | 51.46456 | -0.40686 | 2573 ft | 179 kts | 89° |
| 2026-05-05 15:49 | 51.46261 | -0.38617 | 3442 ft | 199 kts | 117° |
| 2026-05-05 15:49 | 51.45224 | -0.37121 | 4126 ft | 217 kts | 161° |
| 2026-05-05 15:49 | 51.43682 | -0.36997 | 5091 ft | 228 kts | 195° |
| 2026-05-05 15:50 | 51.42220 | -0.37945 | 6159 ft | 241 kts | 202° |
| 2026-05-05 15:50 | 51.40343 | -0.38198 | 5976 ft | 306 kts | 163° |
| 2026-05-05 15:50 | 51.38459 | -0.36518 | 6493 ft | 312 kts | 133° |
| 2026-05-05 15:50 | 51.37363 | -0.33605 | 6956 ft | 304 kts | 102° |
| 2026-05-05 15:51 | 51.37227 | -0.31408 | 7276 ft | 299 kts | 82° |
| 2026-05-05 15:51 | 51.38308 | -0.27446 | 7910 ft | 292 kts | 54° |
| 2026-05-05 15:51 | 51.39029 | -0.25620 | 7917 ft | 299 kts | 61° |
| 2026-05-05 15:51 | 51.39841 | -0.22504 | 7939 ft | 305 kts | 70° |
| 2026-05-05 15:52 | 51.40442 | -0.19237 | 7956 ft | 305 kts | 74° |
| 2026-05-05 15:52 | 51.40948 | -0.14962 | 7945 ft | 299 kts | 91° |
| 2026-05-05 15:52 | 51.40577 | -0.11690 | 7983 ft | 301 kts | 103° |
| 2026-05-05 15:52 | 51.40069 | -0.08405 | 8010 ft | 306 kts | 104° |
| 2026-05-05 15:53 | 51.39631 | -0.06213 | 8116 ft | 305 kts | 110° |
| 2026-05-05 15:53 | 51.38703 | -0.03279 | 8167 ft | 305 kts | 117° |
| 2026-05-05 15:53 | 51.38058 | -0.00080 | 8069 ft | 303 kts | 95° |
| 2026-05-05 15:53 | 51.37888 | 0.03218 | 8415 ft | 300 kts | 94° |
| 2026-05-05 15:54 | 51.37652 | 0.06606 | 9040 ft | 317 kts | 96° |
| 2026-05-05 15:54 | 51.37312 | 0.10201 | 9668 ft | 335 kts | 99° |
| 2026-05-05 15:54 | 51.37141 | 0.11770 | 9924 ft | 342 kts | 99° |
| 2026-05-05 15:54 | 51.37000 | 0.12998 | 10109 ft | 348 kts | 100° |
| 2026-05-05 15:55 | 51.36517 | 0.16880 | 10692 ft | 364 kts | 102° |
| 2026-05-05 15:55 | 51.35924 | 0.20877 | 11261 ft | 374 kts | 104° |
| 2026-05-05 15:55 | 51.35258 | 0.24912 | 11817 ft | 374 kts | 104° |
| 2026-05-05 15:55 | 51.34578 | 0.28914 | 12360 ft | 370 kts | 104° |
| 2026-05-05 15:56 | 51.33905 | 0.32863 | 13034 ft | 367 kts | 104° |
| 2026-05-05 15:56 | 51.33239 | 0.36794 | 13619 ft | 364 kts | 104° |
| 2026-05-05 15:56 | 51.32583 | 0.40692 | 14182 ft | 363 kts | 104° |
| 2026-05-05 15:56 | 51.31927 | 0.44598 | 14709 ft | 364 kts | 104° |
| 2026-05-05 15:57 | 51.31273 | 0.48504 | 15239 ft | 364 kts | 104° |
| 2026-05-05 15:57 | 51.30615 | 0.52430 | 15790 ft | 365 kts | 104° |
| 2026-05-05 15:57 | 51.29960 | 0.56352 | 16333 ft | 366 kts | 103° |
| 2026-05-05 15:57 | 51.29435 | 0.60211 | 16877 ft | 366 kts | 100° |
| 2026-05-05 15:58 | 51.28986 | 0.64197 | 17444 ft | 373 kts | 99° |
| 2026-05-05 15:58 | 51.28548 | 0.68327 | 18045 ft | 381 kts | 99° |
| 2026-05-05 15:58 | 51.28103 | 0.72555 | 18603 ft | 389 kts | 99° |
| 2026-05-05 15:58 | 51.27643 | 0.76839 | 19131 ft | 395 kts | 99° |
| 2026-05-05 15:59 | 51.27165 | 0.81205 | 19663 ft | 401 kts | 100° |
| 2026-05-05 15:59 | 51.26678 | 0.85575 | 20188 ft | 406 kts | 100° |
| 2026-05-05 15:59 | 51.26174 | 0.90038 | 20724 ft | 411 kts | 100° |
| 2026-05-05 15:59 | 51.25661 | 0.94551 | 21257 ft | 415 kts | 101° |
| 2026-05-05 16:00 | 51.25139 | 0.99108 | 21833 ft | 419 kts | 101° |
| 2026-05-05 16:00 | 51.24638 | 1.03460 | 22389 ft | 422 kts | 101° |
| 2026-05-05 16:00 | 51.24112 | 1.08019 | 22971 ft | 425 kts | 101° |
| 2026-05-05 16:00 | 51.23567 | 1.12723 | 23577 ft | 427 kts | 101° |
| 2026-05-05 16:01 | 51.23051 | 1.17157 | 24064 ft | 428 kts | 102° |
| 2026-05-05 16:01 | 51.22506 | 1.21830 | 24585 ft | 430 kts | 102° |
| 2026-05-05 16:01 | 51.21957 | 1.26522 | 25118 ft | 430 kts | 102° |
| 2026-05-05 16:01 | 51.21405 | 1.31223 | 25656 ft | 431 kts | 102° |
| 2026-05-05 16:02 | 51.20852 | 1.35919 | 26204 ft | 431 kts | 102° |
| 2026-05-05 16:02 | 51.20296 | 1.40628 | 26756 ft | 431 kts | 102° |
| 2026-05-05 16:02 | 51.19739 | 1.45314 | 27317 ft | 431 kts | 103° |
| 2026-05-05 16:02 | 51.19179 | 1.50015 | 27876 ft | 430 kts | 103° |
| 2026-05-05 16:03 | 51.18619 | 1.54697 | 28472 ft | 429 kts | 103° |
| 2026-05-05 16:03 | 51.18059 | 1.59361 | 29070 ft | 428 kts | 103° |
| 2026-05-05 16:03 | 51.17501 | 1.64003 | 29681 ft | 426 kts | 103° |
| 2026-05-05 16:03 | 51.16945 | 1.68604 | 30239 ft | 424 kts | 103° |
| 2026-05-05 16:04 | 51.16386 | 1.73212 | 30768 ft | 422 kts | 103° |
| 2026-05-05 16:04 | 51.15836 | 1.77736 | 31295 ft | 419 kts | 103° |
| 2026-05-05 16:04 | 51.15283 | 1.82269 | 31840 ft | 416 kts | 104° |
| 2026-05-05 16:04 | 51.14766 | 1.86489 | 32356 ft | 413 kts | 103° |
| 2026-05-05 16:05 | 51.14216 | 1.90967 | 32927 ft | 409 kts | 104° |
| 2026-05-05 16:05 | 51.13673 | 1.95378 | 33484 ft | 405 kts | 103° |
| 2026-05-05 16:05 | 51.13144 | 1.99768 | 34043 ft | 400 kts | 101° |
| 2026-05-05 16:05 | 51.12818 | 2.04168 | 34336 ft | 403 kts | 97° |
| 2026-05-05 16:06 | 51.12579 | 2.08674 | 34249 ft | 415 kts | 97° |
| 2026-05-05 16:06 | 51.12349 | 2.13341 | 34150 ft | 426 kts | 97° |
| 2026-05-05 16:06 | 51.12115 | 2.18064 | 34336 ft | 430 kts | 97° |
| 2026-05-05 16:06 | 51.11868 | 2.22854 | 34466 ft | 436 kts | 97° |
| 2026-05-05 16:07 | 51.11612 | 2.27673 | 34595 ft | 441 kts | 97° |
| 2026-05-05 16:07 | 51.11344 | 2.32567 | 34734 ft | 446 kts | 97° |
| 2026-05-05 16:07 | 51.11071 | 2.37505 | 34814 ft | 452 kts | 97° |
| 2026-05-05 16:08 | 51.10506 | 2.47606 | 34903 ft | 465 kts | 97° |
| 2026-05-05 16:08 | 51.09902 | 2.57995 | 34914 ft | 478 kts | 99° |
| 2026-05-05 16:09 | 51.08296 | 2.68290 | 34920 ft | 483 kts | 112° |
| 2026-05-05 16:09 | 51.05400 | 2.77920 | 34917 ft | 489 kts | 120° |
| 2026-05-05 16:10 | 51.02127 | 2.87508 | 34914 ft | 497 kts | 121° |
| 2026-05-05 16:10 | 50.98822 | 2.97217 | 34906 ft | 502 kts | 120° |
| 2026-05-05 16:11 | 50.95511 | 3.07035 | 34899 ft | 507 kts | 120° |
| 2026-05-05 16:11 | 50.90559 | 3.21738 | 35255 ft | 504 kts | 120° |
| 2026-05-05 16:12 | 50.88890 | 3.26667 | 35135 ft | 508 kts | 121° |
| 2026-05-05 16:12 | 50.85586 | 3.36401 | 35479 ft | 504 kts | 121° |
| 2026-05-05 16:13 | 50.80571 | 3.51089 | 35840 ft | 502 kts | 121° |
| 2026-05-05 16:13 | 50.78891 | 3.55990 | 35547 ft | 510 kts | 121° |
| 2026-05-05 16:13 | 50.77199 | 3.60915 | 35679 ft | 508 kts | 121° |
| 2026-05-05 16:14 | 50.73876 | 3.70571 | 35785 ft | 510 kts | 121° |
| 2026-05-05 16:14 | 50.70499 | 3.80340 | 36465 ft | 498 kts | 121° |
| 2026-05-05 16:15 | 50.67180 | 3.89902 | 36073 ft | 509 kts | 121° |
| 2026-05-05 16:15 | 50.63810 | 3.99580 | 36280 ft | 508 kts | 121° |
| 2026-05-05 16:16 | 50.60403 | 4.09322 | 36764 ft | 499 kts | 121° |
| 2026-05-05 16:16 | 50.57000 | 4.19017 | 36353 ft | 511 kts | 121° |
| 2026-05-05 16:17 | 50.53597 | 4.28680 | 36773 ft | 505 kts | 121° |
| 2026-05-05 16:17 | 50.51877 | 4.33544 | 36509 ft | 511 kts | 121° |
| 2026-05-05 16:18 | 50.48461 | 4.43192 | 37102 ft | 502 kts | 121° |
| 2026-05-05 16:18 | 50.46741 | 4.48028 | 36735 ft | 510 kts | 121° |
| 2026-05-05 16:18 | 50.43286 | 4.57724 | 37217 ft | 495 kts | 122° |
| 2026-05-05 16:19 | 50.41625 | 4.62382 | 36870 ft | 485 kts | 122° |
| 2026-05-05 16:19 | 50.40002 | 4.66925 | 36673 ft | 472 kts | 122° |
| 2026-05-05 16:19 | 50.36874 | 4.75648 | 36120 ft | 452 kts | 122° |
| 2026-05-05 16:20 | 50.33780 | 4.84221 | 35638 ft | 460 kts | 122° |
| 2026-05-05 16:20 | 50.30578 | 4.93064 | 35181 ft | 471 kts | 122° |
| 2026-05-05 16:21 | 50.27370 | 5.01921 | 34959 ft | 464 kts | 122° |
| 2026-05-05 16:22 | 50.22615 | 5.14986 | 34843 ft | 458 kts | 123° |
| 2026-05-05 16:23 | 50.16258 | 5.32342 | 34822 ft | 466 kts | 123° |
| 2026-05-05 16:23 | 50.11480 | 5.45514 | 34820 ft | 465 kts | 122° |
| 2026-05-05 16:24 | 50.08381 | 5.54261 | 34821 ft | 464 kts | 122° |
| 2026-05-05 16:25 | 50.03682 | 5.67444 | 34816 ft | 465 kts | 122° |
| 2026-05-05 16:25 | 49.98962 | 5.80577 | 34810 ft | 464 kts | 122° |
| 2026-05-05 16:26 | 49.93698 | 5.95136 | 34828 ft | 463 kts | 123° |
| 2026-05-05 16:27 | 49.90761 | 6.03224 | 34836 ft | 462 kts | 123° |
| 2026-05-05 16:27 | 49.87910 | 6.11056 | 34807 ft | 463 kts | 123° |
| 2026-05-05 16:28 | 49.84764 | 6.19667 | 34803 ft | 463 kts | 123° |
| 2026-05-05 16:28 | 49.81587 | 6.28335 | 34822 ft | 463 kts | 123° |
| 2026-05-05 16:29 | 49.78399 | 6.37005 | 34818 ft | 463 kts | 123° |
| 2026-05-05 16:29 | 49.75208 | 6.45660 | 34818 ft | 463 kts | 123° |
| 2026-05-05 16:30 | 49.72132 | 6.54199 | 34813 ft | 465 kts | 120° |
| 2026-05-05 16:30 | 49.69281 | 6.63172 | 34808 ft | 465 kts | 120° |
| 2026-05-05 16:31 | 49.66460 | 6.72150 | 34801 ft | 465 kts | 120° |
| 2026-05-05 16:31 | 49.63617 | 6.81124 | 34804 ft | 466 kts | 120° |
| 2026-05-05 16:32 | 49.60753 | 6.90091 | 34799 ft | 466 kts | 120° |
| 2026-05-05 16:32 | 49.57883 | 6.99032 | 34816 ft | 466 kts | 120° |
| 2026-05-05 16:33 | 49.55077 | 7.07743 | 34817 ft | 467 kts | 120° |
| 2026-05-05 16:33 | 49.52179 | 7.16706 | 34824 ft | 467 kts | 120° |
| 2026-05-05 16:34 | 49.49287 | 7.25623 | 34816 ft | 468 kts | 120° |
| 2026-05-05 16:34 | 49.46374 | 7.34572 | 34820 ft | 469 kts | 120° |
| 2026-05-05 16:35 | 49.43458 | 7.43498 | 34812 ft | 470 kts | 120° |
| 2026-05-05 16:35 | 49.40518 | 7.52467 | 34815 ft | 471 kts | 120° |
| 2026-05-05 16:36 | 49.37564 | 7.61446 | 34813 ft | 471 kts | 120° |
| 2026-05-05 16:36 | 49.34610 | 7.70393 | 34816 ft | 472 kts | 120° |
| 2026-05-05 16:37 | 49.31633 | 7.79375 | 34813 ft | 473 kts | 120° |
| 2026-05-05 16:37 | 49.29148 | 7.86853 | 34818 ft | 474 kts | 120° |
| 2026-05-05 16:38 | 49.26159 | 7.95818 | 34815 ft | 475 kts | 120° |
| 2026-05-05 16:38 | 49.23149 | 8.04810 | 34819 ft | 475 kts | 121° |
| 2026-05-05 16:39 | 49.20123 | 8.13819 | 34823 ft | 475 kts | 121° |
| 2026-05-05 16:39 | 49.17097 | 8.22798 | 34826 ft | 475 kts | 121° |
| 2026-05-05 16:40 | 49.14058 | 8.31782 | 34826 ft | 475 kts | 121° |
| 2026-05-05 16:40 | 49.11035 | 8.40690 | 34833 ft | 476 kts | 121° |
| 2026-05-05 16:41 | 49.07983 | 8.49649 | 34832 ft | 476 kts | 121° |
| 2026-05-05 16:41 | 49.04922 | 8.58606 | 34829 ft | 476 kts | 121° |
| 2026-05-05 16:42 | 49.01881 | 8.67472 | 34825 ft | 477 kts | 121° |
| 2026-05-05 16:42 | 48.98805 | 8.76408 | 34824 ft | 477 kts | 121° |
| 2026-05-05 16:43 | 48.95723 | 8.85329 | 34945 ft | 472 kts | 120° |
| 2026-05-05 16:43 | 48.92707 | 8.94041 | 34834 ft | 461 kts | 121° |
| 2026-05-05 16:44 | 48.89731 | 9.02599 | 34829 ft | 461 kts | 121° |
| 2026-05-05 16:44 | 48.86722 | 9.11219 | 34828 ft | 462 kts | 121° |
| 2026-05-05 16:45 | 48.83694 | 9.19864 | 34829 ft | 464 kts | 121° |
| 2026-05-05 16:45 | 48.80647 | 9.28541 | 34829 ft | 467 kts | 121° |
| 2026-05-05 16:46 | 48.77575 | 9.37257 | 34828 ft | 470 kts | 121° |
| 2026-05-05 16:46 | 48.74478 | 9.46018 | 34827 ft | 471 kts | 121° |
| 2026-05-05 16:47 | 48.71374 | 9.54771 | 34837 ft | 473 kts | 121° |
| 2026-05-05 16:47 | 48.68252 | 9.63550 | 34830 ft | 474 kts | 122° |
| 2026-05-05 16:48 | 48.65049 | 9.72258 | 34824 ft | 473 kts | 123° |
| 2026-05-05 16:48 | 48.61664 | 9.80788 | 34818 ft | 473 kts | 124° |
| 2026-05-05 16:49 | 48.58260 | 9.89291 | 34829 ft | 473 kts | 124° |
| 2026-05-05 16:49 | 48.54869 | 9.97817 | 34824 ft | 474 kts | 124° |
| 2026-05-05 16:50 | 48.51506 | 10.06296 | 34830 ft | 474 kts | 124° |
| 2026-05-05 16:50 | 48.48109 | 10.14847 | 34832 ft | 475 kts | 125° |
| 2026-05-05 16:51 | 48.44709 | 10.23373 | 34830 ft | 475 kts | 125° |
| 2026-05-05 16:51 | 48.43007 | 10.27632 | 34830 ft | 475 kts | 125° |
| 2026-05-05 16:53 | 48.42168 | 10.29725 | 34833 ft | 476 kts | 125° |
| 2026-05-05 16:53 | 48.39085 | 10.37413 | 34831 ft | 477 kts | 125° |
| 2026-05-05 16:54 | 48.35669 | 10.45905 | 34831 ft | 478 kts | 126° |
| 2026-05-05 16:54 | 48.32218 | 10.54457 | 34833 ft | 479 kts | 126° |
| 2026-05-05 16:55 | 48.28753 | 10.63014 | 34826 ft | 480 kts | 126° |
| 2026-05-05 16:55 | 48.25290 | 10.71542 | 34831 ft | 481 kts | 126° |
| 2026-05-05 16:56 | 48.21801 | 10.80105 | 34824 ft | 481 kts | 126° |
| 2026-05-05 16:56 | 48.18305 | 10.88660 | 34828 ft | 481 kts | 126° |
| 2026-05-05 16:57 | 48.14798 | 10.97212 | 34824 ft | 481 kts | 127° |
| 2026-05-05 16:57 | 48.11305 | 11.05703 | 34825 ft | 481 kts | 127° |
| 2026-05-05 16:58 | 48.07789 | 11.14224 | 34823 ft | 482 kts | 127° |
| 2026-05-05 16:58 | 48.04266 | 11.22736 | 34838 ft | 482 kts | 127° |
| 2026-05-05 16:59 | 48.00725 | 11.31264 | 34836 ft | 482 kts | 127° |
| 2026-05-05 16:59 | 47.97177 | 11.39781 | 34825 ft | 483 kts | 127° |
| 2026-05-05 17:00 | 47.93621 | 11.48288 | 34822 ft | 483 kts | 127° |
| 2026-05-05 17:00 | 47.90052 | 11.56804 | 34816 ft | 484 kts | 127° |
| 2026-05-05 17:01 | 47.86472 | 11.65318 | 34807 ft | 485 kts | 127° |
| 2026-05-05 17:01 | 47.82885 | 11.73821 | 34801 ft | 485 kts | 127° |
| 2026-05-05 17:02 | 47.79288 | 11.82322 | 34793 ft | 486 kts | 127° |
| 2026-05-05 17:02 | 47.75694 | 11.90788 | 34787 ft | 487 kts | 127° |
| 2026-05-05 17:03 | 47.72051 | 11.99344 | 34770 ft | 487 kts | 127° |
| 2026-05-05 17:03 | 47.68421 | 12.07848 | 34773 ft | 488 kts | 127° |
| 2026-05-05 17:04 | 47.64807 | 12.16282 | 34754 ft | 488 kts | 127° |
| 2026-05-05 17:04 | 47.61160 | 12.24774 | 34770 ft | 489 kts | 127° |
| 2026-05-05 17:05 | 47.57404 | 12.33186 | 34759 ft | 486 kts | 132° |
| 2026-05-05 17:05 | 47.52758 | 12.40294 | 34784 ft | 478 kts | 144° |
| 2026-05-05 17:06 | 47.47388 | 12.46033 | 34775 ft | 475 kts | 150° |
| 2026-05-05 17:06 | 47.41930 | 12.51557 | 34799 ft | 476 kts | 150° |
| 2026-05-05 17:07 | 47.36466 | 12.57126 | 34813 ft | 478 kts | 149° |
| 2026-05-05 17:07 | 47.31020 | 12.62711 | 34831 ft | 480 kts | 149° |
| 2026-05-05 17:08 | 47.25531 | 12.68332 | 34835 ft | 481 kts | 149° |
| 2026-05-05 17:08 | 47.20025 | 12.73956 | 34862 ft | 481 kts | 149° |
| 2026-05-05 17:09 | 47.14524 | 12.79564 | 34891 ft | 480 kts | 149° |
| 2026-05-05 17:09 | 47.09016 | 12.85157 | 34871 ft | 480 kts | 149° |
| 2026-05-05 17:10 | 47.03555 | 12.90688 | 34888 ft | 480 kts | 149° |
| 2026-05-05 17:10 | 46.98064 | 12.96239 | 34917 ft | 479 kts | 149° |
| 2026-05-05 17:11 | 46.92587 | 13.01761 | 34916 ft | 478 kts | 149° |
| 2026-05-05 17:11 | 46.87097 | 13.07283 | 34935 ft | 478 kts | 149° |
| 2026-05-05 17:12 | 46.81614 | 13.12780 | 34927 ft | 478 kts | 149° |
| 2026-05-05 17:12 | 46.76125 | 13.18273 | 34958 ft | 477 kts | 149° |
| 2026-05-05 17:13 | 46.70646 | 13.23741 | 34961 ft | 477 kts | 149° |
| 2026-05-05 17:13 | 46.65156 | 13.29210 | 34964 ft | 478 kts | 149° |
| 2026-05-05 17:14 | 46.59661 | 13.34667 | 34975 ft | 479 kts | 149° |
| 2026-05-05 17:14 | 46.54517 | 13.40798 | 34981 ft | 486 kts | 138° |
| 2026-05-05 17:15 | 46.49961 | 13.48122 | 34981 ft | 489 kts | 135° |
| 2026-05-05 17:15 | 46.45447 | 13.55517 | 34981 ft | 489 kts | 135° |
| 2026-05-05 17:16 | 46.40909 | 13.62873 | 34999 ft | 490 kts | 135° |
| 2026-05-05 17:16 | 46.36338 | 13.70213 | 34991 ft | 491 kts | 136° |
| 2026-05-05 17:17 | 46.31760 | 13.77529 | 34999 ft | 491 kts | 136° |
| 2026-05-05 17:17 | 46.27162 | 13.84861 | 34995 ft | 492 kts | 136° |
| 2026-05-05 17:18 | 46.22559 | 13.92183 | 34999 ft | 492 kts | 136° |
| 2026-05-05 17:18 | 46.17952 | 13.99493 | 35002 ft | 492 kts | 136° |
| 2026-05-05 17:19 | 46.13345 | 14.06783 | 35001 ft | 492 kts | 136° |
| 2026-05-05 17:19 | 46.08730 | 14.14069 | 35002 ft | 492 kts | 136° |
| 2026-05-05 17:20 | 46.04137 | 14.21295 | 34998 ft | 492 kts | 136° |
| 2026-05-05 17:20 | 45.99514 | 14.28553 | 34995 ft | 492 kts | 136° |
| 2026-05-05 17:21 | 45.94880 | 14.35808 | 34999 ft | 493 kts | 136° |
| 2026-05-05 17:22 | 45.87908 | 14.46687 | 34986 ft | 494 kts | 136° |
| 2026-05-05 17:22 | 45.83226 | 14.53968 | 34997 ft | 495 kts | 136° |
| 2026-05-05 17:23 | 45.78573 | 14.61185 | 34996 ft | 496 kts | 136° |
| 2026-05-05 17:23 | 45.73881 | 14.68443 | 34991 ft | 496 kts | 136° |
| 2026-05-05 17:24 | 45.69977 | 14.74467 | 34975 ft | 496 kts | 136° |
| 2026-05-05 17:24 | 45.65274 | 14.81708 | 34990 ft | 496 kts | 136° |
| 2026-05-05 17:25 | 45.59800 | 14.90109 | 34989 ft | 496 kts | 136° |
| 2026-05-05 17:25 | 45.55884 | 14.96107 | 34996 ft | 496 kts | 136° |
| 2026-05-05 17:26 | 45.51171 | 15.03305 | 34985 ft | 497 kts | 136° |
| 2026-05-05 17:26 | 45.46444 | 15.10504 | 34983 ft | 497 kts | 136° |
| 2026-05-05 17:27 | 45.41710 | 15.17698 | 34976 ft | 498 kts | 136° |
| 2026-05-05 17:27 | 45.36961 | 15.24894 | 34980 ft | 499 kts | 136° |
| 2026-05-05 17:28 | 45.32208 | 15.32078 | 34979 ft | 499 kts | 136° |
| 2026-05-05 17:28 | 45.27464 | 15.39228 | 34979 ft | 500 kts | 136° |
| 2026-05-05 17:29 | 45.22680 | 15.46420 | 34972 ft | 500 kts | 136° |
| 2026-05-05 17:29 | 45.17901 | 15.53586 | 34994 ft | 501 kts | 136° |
| 2026-05-05 17:30 | 45.13105 | 15.60759 | 34982 ft | 501 kts | 136° |
| 2026-05-05 17:30 | 45.08306 | 15.67918 | 34987 ft | 501 kts | 136° |
| 2026-05-05 17:31 | 45.03496 | 15.75074 | 35002 ft | 502 kts | 136° |
| 2026-05-05 17:31 | 44.98678 | 15.82224 | 35008 ft | 502 kts | 136° |
| 2026-05-05 17:32 | 44.93887 | 15.89314 | 35003 ft | 503 kts | 136° |
| 2026-05-05 17:32 | 44.89044 | 15.96464 | 35003 ft | 504 kts | 136° |
| 2026-05-05 17:33 | 44.84179 | 16.03627 | 35002 ft | 504 kts | 136° |
| 2026-05-05 17:33 | 44.79317 | 16.10767 | 34999 ft | 505 kts | 136° |
| 2026-05-05 17:34 | 44.74489 | 16.17838 | 35006 ft | 505 kts | 136° |
| 2026-05-05 17:34 | 44.69619 | 16.24953 | 35009 ft | 505 kts | 136° |
| 2026-05-05 17:35 | 44.64735 | 16.32071 | 35008 ft | 506 kts | 136° |
| 2026-05-05 17:35 | 44.59850 | 16.39172 | 35001 ft | 506 kts | 136° |
| 2026-05-05 17:36 | 44.54960 | 16.46259 | 35013 ft | 505 kts | 136° |
| 2026-05-05 17:36 | 44.50068 | 16.53335 | 35016 ft | 506 kts | 136° |
| 2026-05-05 17:37 | 44.45161 | 16.60411 | 35021 ft | 506 kts | 137° |
| 2026-05-05 17:37 | 44.40252 | 16.67475 | 35028 ft | 507 kts | 137° |
| 2026-05-05 17:38 | 44.35327 | 16.74544 | 35031 ft | 507 kts | 137° |
| 2026-05-05 17:38 | 44.30407 | 16.81611 | 35033 ft | 507 kts | 135° |
| 2026-05-05 17:39 | 44.25815 | 16.89030 | 35045 ft | 508 kts | 132° |
| 2026-05-05 17:39 | 44.21264 | 16.96601 | 35043 ft | 509 kts | 132° |
| 2026-05-05 17:40 | 44.16697 | 17.04158 | 35046 ft | 510 kts | 132° |
| 2026-05-05 17:40 | 44.12098 | 17.11707 | 35046 ft | 511 kts | 133° |
| 2026-05-05 17:41 | 44.07509 | 17.19206 | 35053 ft | 512 kts | 133° |
| 2026-05-05 17:41 | 44.02888 | 17.26736 | 35058 ft | 513 kts | 133° |
| 2026-05-05 17:42 | 43.98244 | 17.34286 | 35052 ft | 513 kts | 133° |
| 2026-05-05 17:42 | 43.93599 | 17.41818 | 35060 ft | 514 kts | 133° |
| 2026-05-05 17:43 | 43.88965 | 17.49315 | 35063 ft | 514 kts | 133° |
| 2026-05-05 17:43 | 43.84307 | 17.56828 | 35075 ft | 514 kts | 133° |
| 2026-05-05 17:44 | 43.79642 | 17.64336 | 35058 ft | 514 kts | 133° |
| 2026-05-05 17:44 | 43.74963 | 17.71845 | 35072 ft | 515 kts | 133° |
| 2026-05-05 17:45 | 43.70279 | 17.79342 | 35071 ft | 515 kts | 133° |
| 2026-05-05 17:45 | 43.65578 | 17.86850 | 35075 ft | 515 kts | 133° |
| 2026-05-05 17:46 | 43.60914 | 17.94275 | 35063 ft | 516 kts | 133° |
| 2026-05-05 17:46 | 43.56197 | 18.01768 | 35067 ft | 517 kts | 133° |
| 2026-05-05 17:47 | 43.51480 | 18.09240 | 35075 ft | 517 kts | 133° |
| 2026-05-05 17:47 | 43.46751 | 18.16711 | 35100 ft | 517 kts | 133° |
| 2026-05-05 17:48 | 43.42021 | 18.24167 | 35085 ft | 517 kts | 133° |
| 2026-05-05 17:48 | 43.37279 | 18.31621 | 35101 ft | 517 kts | 133° |
| 2026-05-05 17:49 | 43.32532 | 18.39064 | 35076 ft | 518 kts | 133° |
| 2026-05-05 17:49 | 43.27774 | 18.46504 | 35076 ft | 518 kts | 133° |
| 2026-05-05 17:50 | 43.23035 | 18.53895 | 35095 ft | 519 kts | 133° |
| 2026-05-05 17:50 | 43.18274 | 18.61303 | 35072 ft | 520 kts | 133° |
| 2026-05-05 17:51 | 43.14021 | 18.67904 | 35075 ft | 520 kts | 133° |
| 2026-05-05 17:51 | 43.11165 | 18.72329 | 35063 ft | 521 kts | 133° |
| 2026-05-05 17:52 | 43.09286 | 18.75236 | 35091 ft | 520 kts | 133° |
| 2026-05-05 17:52 | 43.04479 | 18.82658 | 35090 ft | 520 kts | 133° |
| 2026-05-05 17:53 | 42.99679 | 18.90052 | 35068 ft | 520 kts | 133° |
| 2026-05-05 17:53 | 42.94862 | 18.97454 | 35070 ft | 521 kts | 133° |
| 2026-05-05 17:54 | 42.90038 | 19.04848 | 35068 ft | 521 kts | 134° |
| 2026-05-05 17:54 | 42.85208 | 19.12231 | 35081 ft | 522 kts | 134° |
| 2026-05-05 17:55 | 42.80379 | 19.19595 | 35090 ft | 522 kts | 134° |
| 2026-05-05 17:55 | 42.75531 | 19.26969 | 35089 ft | 521 kts | 134° |
| 2026-05-05 17:56 | 42.70698 | 19.34301 | 35088 ft | 521 kts | 134° |
| 2026-05-05 17:56 | 42.65872 | 19.41604 | 35063 ft | 522 kts | 134° |
| 2026-05-05 17:57 | 42.61004 | 19.48953 | 35086 ft | 523 kts | 134° |
| 2026-05-05 17:57 | 42.56122 | 19.56308 | 35067 ft | 525 kts | 134° |
| 2026-05-05 17:58 | 42.50960 | 19.63256 | 35090 ft | 522 kts | 143° |
| 2026-05-05 17:58 | 42.45273 | 19.69372 | 35095 ft | 522 kts | 144° |
| 2026-05-05 17:59 | 42.39558 | 19.75469 | 35087 ft | 524 kts | 144° |
| 2026-05-05 17:59 | 42.33853 | 19.81615 | 35087 ft | 525 kts | 143° |
| 2026-05-05 18:00 | 42.28139 | 19.87798 | 35058 ft | 525 kts | 144° |
| 2026-05-05 18:00 | 42.22442 | 19.93952 | 35084 ft | 524 kts | 143° |
| 2026-05-05 18:01 | 42.16745 | 20.00082 | 35088 ft | 523 kts | 144° |
| 2026-05-05 18:01 | 42.11088 | 20.06153 | 35085 ft | 523 kts | 144° |
| 2026-05-05 18:02 | 42.05382 | 20.12263 | 35090 ft | 523 kts | 144° |
| 2026-05-05 18:02 | 41.99673 | 20.18362 | 35089 ft | 524 kts | 144° |
| 2026-05-05 18:03 | 41.93952 | 20.24459 | 35107 ft | 525 kts | 144° |
| 2026-05-05 18:03 | 41.88219 | 20.30554 | 35102 ft | 526 kts | 144° |
| 2026-05-05 18:04 | 41.82504 | 20.36617 | 35098 ft | 527 kts | 144° |
| 2026-05-05 18:04 | 41.76729 | 20.42732 | 35097 ft | 529 kts | 144° |
| 2026-05-05 18:05 | 41.70945 | 20.48841 | 35098 ft | 530 kts | 144° |
| 2026-05-05 18:05 | 41.65134 | 20.54965 | 35095 ft | 532 kts | 144° |
| 2026-05-05 18:06 | 41.59334 | 20.61091 | 35089 ft | 532 kts | 144° |
| 2026-05-05 18:06 | 41.53529 | 20.67223 | 35094 ft | 532 kts | 144° |
| 2026-05-05 18:07 | 41.47756 | 20.73303 | 35088 ft | 532 kts | 143° |
| 2026-05-05 18:07 | 41.41948 | 20.79402 | 35084 ft | 531 kts | 144° |
| 2026-05-05 18:08 | 41.36135 | 20.85493 | 35102 ft | 531 kts | 144° |
| 2026-05-05 18:08 | 41.30319 | 20.91570 | 35090 ft | 532 kts | 144° |
| 2026-05-05 18:09 | 41.24497 | 20.97641 | 35094 ft | 532 kts | 144° |
| 2026-05-05 18:09 | 41.18665 | 21.03709 | 35084 ft | 533 kts | 144° |
| 2026-05-05 18:10 | 41.12822 | 21.09775 | 35083 ft | 534 kts | 144° |
| 2026-05-05 18:10 | 41.06961 | 21.15844 | 35072 ft | 534 kts | 144° |
| 2026-05-05 18:11 | 41.01100 | 21.21900 | 35069 ft | 535 kts | 144° |
| 2026-05-05 18:11 | 40.95722 | 21.27444 | 35070 ft | 536 kts | 144° |
| 2026-05-05 18:12 | 40.90799 | 21.32513 | 35072 ft | 536 kts | 144° |
| 2026-05-05 18:12 | 40.84885 | 21.38510 | 35064 ft | 535 kts | 146° |
| 2026-05-05 18:13 | 40.78810 | 21.44199 | 35072 ft | 536 kts | 146° |
| 2026-05-05 18:13 | 40.72766 | 21.50019 | 35074 ft | 538 kts | 145° |
| 2026-05-05 18:14 | 40.66779 | 21.55862 | 35051 ft | 539 kts | 145° |
| 2026-05-05 18:14 | 40.60738 | 21.61715 | 35060 ft | 540 kts | 146° |
| 2026-05-05 18:15 | 40.54673 | 21.67543 | 35054 ft | 540 kts | 146° |
| 2026-05-05 18:15 | 40.48562 | 21.73392 | 35057 ft | 540 kts | 146° |
| 2026-05-05 18:16 | 40.42509 | 21.79173 | 35047 ft | 541 kts | 146° |
| 2026-05-05 18:16 | 40.36418 | 21.84980 | 35048 ft | 541 kts | 146° |
| 2026-05-05 18:17 | 40.30321 | 21.90781 | 35046 ft | 541 kts | 146° |
| 2026-05-05 18:17 | 40.24226 | 21.96567 | 35043 ft | 541 kts | 146° |
| 2026-05-05 18:18 | 40.18126 | 22.02343 | 35057 ft | 541 kts | 146° |
| 2026-05-05 18:18 | 40.12022 | 22.08111 | 35049 ft | 541 kts | 146° |
| 2026-05-05 18:19 | 40.05951 | 22.13834 | 35051 ft | 541 kts | 146° |
| 2026-05-05 18:19 | 39.99838 | 22.19584 | 35048 ft | 542 kts | 146° |
| 2026-05-05 18:20 | 39.93710 | 22.25334 | 35050 ft | 542 kts | 146° |
| 2026-05-05 18:20 | 39.87572 | 22.31082 | 35037 ft | 543 kts | 146° |
| 2026-05-05 18:21 | 39.81429 | 22.36821 | 35031 ft | 544 kts | 146° |
| 2026-05-05 18:21 | 39.75263 | 22.42570 | 35028 ft | 545 kts | 146° |
| 2026-05-05 18:22 | 39.69102 | 22.48300 | 35022 ft | 545 kts | 146° |
| 2026-05-05 18:22 | 39.62927 | 22.54031 | 35024 ft | 545 kts | 146° |
| 2026-05-05 18:23 | 39.56747 | 22.59752 | 35026 ft | 546 kts | 146° |
| 2026-05-05 18:23 | 39.50563 | 22.65465 | 35023 ft | 546 kts | 146° |
| 2026-05-05 18:24 | 39.44376 | 22.71168 | 35027 ft | 546 kts | 146° |
| 2026-05-05 18:24 | 39.38182 | 22.76866 | 35025 ft | 546 kts | 146° |
| 2026-05-05 18:25 | 39.32119 | 22.82430 | 35020 ft | 546 kts | 146° |
| 2026-05-05 18:25 | 39.25924 | 22.88103 | 35018 ft | 546 kts | 146° |
| 2026-05-05 18:26 | 39.19721 | 22.93770 | 35025 ft | 546 kts | 146° |
| 2026-05-05 18:26 | 39.13517 | 22.99426 | 35025 ft | 546 kts | 146° |
| 2026-05-05 18:27 | 39.07320 | 23.05063 | 35033 ft | 545 kts | 146° |
| 2026-05-05 18:27 | 39.01107 | 23.10703 | 35035 ft | 546 kts | 146° |
| 2026-05-05 18:28 | 38.91825 | 23.19105 | 35045 ft | 546 kts | 146° |
| 2026-05-05 18:28 | 38.85595 | 23.24728 | 35051 ft | 546 kts | 146° |
| 2026-05-05 18:29 | 38.79367 | 23.30338 | 35041 ft | 546 kts | 146° |
| 2026-05-05 18:29 | 38.73139 | 23.35935 | 35051 ft | 547 kts | 146° |
| 2026-05-05 18:30 | 38.66914 | 23.41521 | 35065 ft | 547 kts | 146° |
| 2026-05-05 18:30 | 38.60722 | 23.47061 | 35055 ft | 548 kts | 146° |
| 2026-05-05 18:31 | 38.54465 | 23.52647 | 35062 ft | 548 kts | 146° |
| 2026-05-05 18:31 | 38.48203 | 23.58227 | 35064 ft | 549 kts | 146° |
| 2026-05-05 18:32 | 38.41935 | 23.63800 | 35070 ft | 549 kts | 146° |
| 2026-05-05 18:32 | 38.35662 | 23.69366 | 35069 ft | 549 kts | 146° |
| 2026-05-05 18:33 | 38.29374 | 23.74933 | 35068 ft | 549 kts | 146° |
| 2026-05-05 18:33 | 38.23126 | 23.80453 | 35068 ft | 549 kts | 146° |
| 2026-05-05 18:34 | 38.16846 | 23.85988 | 35084 ft | 548 kts | 146° |
| 2026-05-05 18:34 | 38.10564 | 23.91514 | 35072 ft | 549 kts | 146° |
| 2026-05-05 18:35 | 38.04327 | 23.96989 | 35068 ft | 548 kts | 146° |
| 2026-05-05 18:35 | 37.98041 | 24.02495 | 35075 ft | 548 kts | 146° |
| 2026-05-05 18:36 | 37.91759 | 24.07987 | 35074 ft | 547 kts | 146° |
| 2026-05-05 18:36 | 37.85486 | 24.13458 | 35074 ft | 547 kts | 146° |
| 2026-05-05 18:37 | 37.79252 | 24.18884 | 35074 ft | 547 kts | 146° |
| 2026-05-05 18:37 | 37.72984 | 24.24328 | 35074 ft | 547 kts | 146° |
| 2026-05-05 18:38 | 37.66714 | 24.29762 | 35069 ft | 546 kts | 146° |
| 2026-05-05 18:38 | 37.60447 | 24.35183 | 35071 ft | 547 kts | 146° |
| 2026-05-05 18:39 | 37.54165 | 24.40605 | 35062 ft | 546 kts | 146° |
| 2026-05-05 18:39 | 37.47888 | 24.46012 | 35069 ft | 546 kts | 146° |
| 2026-05-05 18:40 | 37.41614 | 24.51405 | 35067 ft | 545 kts | 146° |
| 2026-05-05 18:40 | 37.35362 | 24.56768 | 35069 ft | 545 kts | 146° |
| 2026-05-05 18:41 | 37.29101 | 24.62128 | 35066 ft | 544 kts | 146° |
| 2026-05-05 18:41 | 37.22826 | 24.67488 | 35070 ft | 544 kts | 146° |
| 2026-05-05 18:42 | 37.16603 | 24.72795 | 35070 ft | 544 kts | 146° |
| 2026-05-05 18:42 | 37.10333 | 24.78129 | 35070 ft | 543 kts | 146° |
| 2026-05-05 18:43 | 37.04085 | 24.83434 | 35072 ft | 543 kts | 146° |
| 2026-05-05 18:43 | 36.97820 | 24.88743 | 35074 ft | 542 kts | 146° |
| 2026-05-05 18:44 | 36.91568 | 24.94030 | 35074 ft | 542 kts | 146° |
| 2026-05-05 18:44 | 36.85334 | 24.99292 | 35072 ft | 541 kts | 146° |
| 2026-05-05 18:45 | 36.79082 | 25.04557 | 35071 ft | 541 kts | 146° |
| 2026-05-05 18:45 | 36.72843 | 25.09802 | 35073 ft | 541 kts | 146° |
| 2026-05-05 18:46 | 36.66648 | 25.14999 | 35056 ft | 540 kts | 146° |
| 2026-05-05 18:46 | 36.60413 | 25.20220 | 35071 ft | 540 kts | 146° |
| 2026-05-05 18:47 | 36.54176 | 25.25432 | 35066 ft | 539 kts | 147° |
| 2026-05-05 18:47 | 36.47943 | 25.30629 | 35073 ft | 539 kts | 147° |
| 2026-05-05 18:48 | 36.41722 | 25.35808 | 35075 ft | 538 kts | 147° |
| 2026-05-05 18:48 | 36.35493 | 25.40982 | 35070 ft | 538 kts | 147° |
| 2026-05-05 18:49 | 36.29279 | 25.46134 | 35075 ft | 537 kts | 147° |
| 2026-05-05 18:49 | 36.23070 | 25.51271 | 35075 ft | 536 kts | 147° |
| 2026-05-05 18:50 | 36.16869 | 25.56393 | 35074 ft | 535 kts | 147° |
| 2026-05-05 18:50 | 36.10681 | 25.61494 | 35074 ft | 535 kts | 148° |
| 2026-05-05 18:51 | 36.04492 | 25.66585 | 35077 ft | 534 kts | 148° |
| 2026-05-05 18:51 | 35.98313 | 25.71658 | 35080 ft | 534 kts | 148° |
| 2026-05-05 18:52 | 35.92159 | 25.76702 | 35077 ft | 533 kts | 148° |
| 2026-05-05 18:52 | 35.85968 | 25.81766 | 35076 ft | 533 kts | 148° |
| 2026-05-05 18:53 | 35.79783 | 25.86816 | 35077 ft | 533 kts | 148° |
| 2026-05-05 18:53 | 35.73598 | 25.91855 | 35074 ft | 533 kts | 148° |
| 2026-05-05 18:54 | 35.67389 | 25.96906 | 35076 ft | 534 kts | 148° |
| 2026-05-05 18:54 | 35.61194 | 26.01934 | 35079 ft | 534 kts | 148° |
| 2026-05-05 18:55 | 35.54992 | 26.06960 | 35077 ft | 534 kts | 148° |
| 2026-05-05 18:55 | 35.48781 | 26.11983 | 35076 ft | 534 kts | 148° |
| 2026-05-05 18:56 | 35.42601 | 26.16971 | 35082 ft | 535 kts | 148° |
| 2026-05-05 18:56 | 35.36384 | 26.21981 | 35077 ft | 535 kts | 148° |
| 2026-05-05 18:57 | 35.30163 | 26.26984 | 35081 ft | 535 kts | 148° |
| 2026-05-05 18:57 | 35.24985 | 26.31141 | 35083 ft | 535 kts | 148° |
| 2026-05-05 18:58 | 35.18746 | 26.36141 | 35078 ft | 535 kts | 149° |
| 2026-05-05 18:58 | 35.12509 | 26.41130 | 35077 ft | 536 kts | 149° |
| 2026-05-05 18:59 | 35.06267 | 26.46115 | 35077 ft | 536 kts | 149° |
| 2026-05-05 18:59 | 35.00022 | 26.51092 | 35078 ft | 536 kts | 149° |
| 2026-05-05 19:00 | 34.93774 | 26.56062 | 35083 ft | 536 kts | 149° |
| 2026-05-05 19:00 | 34.87515 | 26.61032 | 35082 ft | 536 kts | 149° |
| 2026-05-05 19:01 | 34.81267 | 26.65985 | 35085 ft | 536 kts | 149° |
| 2026-05-05 19:01 | 34.75053 | 26.70901 | 35085 ft | 535 kts | 149° |
| 2026-05-05 19:02 | 34.68803 | 26.75837 | 35085 ft | 535 kts | 149° |
| 2026-05-05 19:02 | 34.62555 | 26.80762 | 35090 ft | 535 kts | 149° |
| 2026-05-05 19:03 | 34.56301 | 26.85682 | 35087 ft | 535 kts | 149° |
| 2026-05-05 19:03 | 34.50059 | 26.90585 | 35087 ft | 535 kts | 149° |
| 2026-05-05 19:04 | 34.43807 | 26.95487 | 35089 ft | 535 kts | 149° |
| 2026-05-05 19:04 | 34.37562 | 27.00374 | 35088 ft | 535 kts | 149° |
| 2026-05-05 19:05 | 34.31309 | 27.05258 | 35090 ft | 535 kts | 149° |
| 2026-05-05 19:05 | 34.25051 | 27.10138 | 35092 ft | 535 kts | 149° |
| 2026-05-05 19:06 | 34.18800 | 27.15004 | 35088 ft | 534 kts | 149° |
| 2026-05-05 19:06 | 34.12548 | 27.19862 | 35090 ft | 534 kts | 149° |
| 2026-05-05 19:07 | 34.06341 | 27.24677 | 35088 ft | 534 kts | 149° |
| 2026-05-05 19:07 | 34.00094 | 27.29515 | 35091 ft | 534 kts | 149° |
| 2026-05-05 19:08 | 33.93851 | 27.34349 | 35086 ft | 534 kts | 149° |
| 2026-05-05 19:08 | 33.87666 | 27.39298 | 35086 ft | 534 kts | 148° |
| 2026-05-05 19:09 | 33.81507 | 27.44300 | 35104 ft | 534 kts | 148° |
| 2026-05-05 19:09 | 33.75335 | 27.49287 | 35101 ft | 534 kts | 148° |
| 2026-05-05 19:10 | 33.69153 | 27.54251 | 35084 ft | 534 kts | 148° |
| 2026-05-05 19:10 | 33.62967 | 27.59201 | 35096 ft | 534 kts | 148° |
| 2026-05-05 19:11 | 33.56786 | 27.64140 | 35095 ft | 534 kts | 148° |
| 2026-05-05 19:11 | 33.50598 | 27.69077 | 35098 ft | 534 kts | 148° |
| 2026-05-05 19:12 | 33.44413 | 27.74004 | 35101 ft | 534 kts | 149° |
| 2026-05-05 19:12 | 33.38271 | 27.78889 | 35090 ft | 533 kts | 149° |
| 2026-05-05 19:13 | 33.32095 | 27.83791 | 35100 ft | 532 kts | 149° |
| 2026-05-05 19:13 | 33.25924 | 27.88682 | 35097 ft | 531 kts | 149° |
| 2026-05-05 19:14 | 33.19771 | 27.93549 | 35102 ft | 530 kts | 149° |
| 2026-05-05 19:14 | 33.13617 | 27.98410 | 35103 ft | 530 kts | 149° |
| 2026-05-05 19:15 | 33.07471 | 28.03255 | 35102 ft | 529 kts | 149° |
| 2026-05-05 19:15 | 33.01334 | 28.08085 | 35107 ft | 528 kts | 149° |
| 2026-05-05 19:16 | 32.95203 | 28.12902 | 35101 ft | 528 kts | 149° |
| 2026-05-05 19:16 | 32.89072 | 28.17712 | 35225 ft | 528 kts | 149° |
| 2026-05-05 19:17 | 32.86038 | 28.20087 | 35510 ft | 528 kts | 149° |
| 2026-05-05 19:17 | 32.82977 | 28.22484 | 35927 ft | 525 kts | 149° |
| 2026-05-05 19:17 | 32.79934 | 28.24865 | 36350 ft | 522 kts | 149° |
| 2026-05-05 19:17 | 32.76915 | 28.27225 | 36700 ft | 521 kts | 149° |
| 2026-05-05 19:18 | 32.73869 | 28.29603 | 37007 ft | 520 kts | 149° |
| 2026-05-05 19:18 | 32.70833 | 28.31971 | 37072 ft | 523 kts | 149° |
| 2026-05-05 19:18 | 32.64753 | 28.36707 | 37107 ft | 522 kts | 149° |
| 2026-05-05 19:19 | 32.58692 | 28.41423 | 37101 ft | 519 kts | 149° |
| 2026-05-05 19:19 | 32.52676 | 28.46096 | 37097 ft | 517 kts | 149° |
| 2026-05-05 19:20 | 32.46653 | 28.50766 | 37105 ft | 516 kts | 149° |
| 2026-05-05 19:20 | 32.40648 | 28.55413 | 37111 ft | 516 kts | 149° |
| 2026-05-05 19:21 | 32.34634 | 28.60061 | 37114 ft | 516 kts | 149° |
| 2026-05-05 19:21 | 32.28644 | 28.64683 | 37114 ft | 517 kts | 150° |
| 2026-05-05 19:22 | 32.22608 | 28.69333 | 37108 ft | 518 kts | 150° |
| 2026-05-05 19:22 | 32.16564 | 28.73982 | 37101 ft | 519 kts | 150° |
| 2026-05-05 19:23 | 32.10500 | 28.78639 | 37118 ft | 519 kts | 150° |
| 2026-05-05 19:23 | 32.04445 | 28.83281 | 37114 ft | 519 kts | 150° |
| 2026-05-05 19:24 | 31.98383 | 28.87922 | 37109 ft | 519 kts | 150° |
| 2026-05-05 19:24 | 31.92326 | 28.92551 | 37114 ft | 519 kts | 150° |
| 2026-05-05 19:25 | 31.86261 | 28.97180 | 37116 ft | 518 kts | 150° |
| 2026-05-05 19:25 | 31.80217 | 29.01786 | 37115 ft | 518 kts | 150° |
| 2026-05-05 19:26 | 31.73978 | 29.05749 | 37110 ft | 508 kts | 165° |
| 2026-05-05 19:26 | 31.67114 | 29.07440 | 37114 ft | 495 kts | 183° |
| 2026-05-05 19:27 | 31.60326 | 29.07484 | 37115 ft | 491 kts | 186° |
| 2026-05-05 19:27 | 31.53471 | 29.07473 | 37118 ft | 492 kts | 185° |
| 2026-05-05 19:28 | 31.46624 | 29.07536 | 37118 ft | 493 kts | 185° |
| 2026-05-05 19:28 | 31.39745 | 29.07632 | 37119 ft | 494 kts | 185° |
| 2026-05-05 19:29 | 31.32871 | 29.07728 | 37113 ft | 494 kts | 185° |
| 2026-05-05 19:29 | 31.25998 | 29.07819 | 37118 ft | 494 kts | 185° |
| 2026-05-05 19:30 | 31.19155 | 29.07909 | 37116 ft | 493 kts | 185° |
| 2026-05-05 19:30 | 31.12297 | 29.08006 | 37115 ft | 492 kts | 185° |
| 2026-05-05 19:31 | 31.05445 | 29.08107 | 37109 ft | 491 kts | 185° |
| 2026-05-05 19:31 | 30.98613 | 29.08206 | 37120 ft | 490 kts | 185° |
| 2026-05-05 19:32 | 30.91804 | 29.08304 | 37116 ft | 489 kts | 185° |
| 2026-05-05 19:32 | 30.84990 | 29.08401 | 37117 ft | 488 kts | 185° |
| 2026-05-05 19:33 | 30.78251 | 29.08497 | 37120 ft | 487 kts | 185° |
| 2026-05-05 19:33 | 30.71473 | 29.08594 | 37117 ft | 486 kts | 185° |
| 2026-05-05 19:34 | 30.64712 | 29.08690 | 37117 ft | 486 kts | 185° |
| 2026-05-05 19:35 | 30.54576 | 29.08862 | 37111 ft | 486 kts | 181° |
| 2026-05-05 19:35 | 30.51227 | 29.09624 | 37115 ft | 499 kts | 166° |
| 2026-05-05 19:35 | 30.48072 | 29.11384 | 37126 ft | 509 kts | 151° |
| 2026-05-05 19:35 | 30.45337 | 29.14054 | 37114 ft | 519 kts | 136° |
| 2026-05-05 19:36 | 30.42949 | 29.17209 | 37130 ft | 520 kts | 135° |
| 2026-05-05 19:36 | 30.38085 | 29.23324 | 37116 ft | 520 kts | 138° |
| 2026-05-05 19:37 | 30.32977 | 29.29285 | 37119 ft | 521 kts | 139° |
| 2026-05-05 19:37 | 30.27907 | 29.35285 | 37112 ft | 522 kts | 138° |
| 2026-05-05 19:38 | 30.22846 | 29.41341 | 37112 ft | 522 kts | 138° |
| 2026-05-05 19:38 | 30.17795 | 29.47385 | 37113 ft | 522 kts | 138° |
| 2026-05-05 19:39 | 30.12747 | 29.53406 | 37119 ft | 521 kts | 138° |
| 2026-05-05 19:39 | 30.07703 | 29.59407 | 37118 ft | 520 kts | 139° |
| 2026-05-05 19:40 | 30.02660 | 29.65396 | 37118 ft | 520 kts | 139° |
| 2026-05-05 19:40 | 29.98047 | 29.70867 | 37116 ft | 519 kts | 139° |
| 2026-05-05 19:41 | 29.93022 | 29.76819 | 37118 ft | 518 kts | 139° |
| 2026-05-05 19:41 | 29.87996 | 29.82761 | 37120 ft | 517 kts | 139° |
| 2026-05-05 19:42 | 29.82972 | 29.88693 | 37116 ft | 516 kts | 139° |
| 2026-05-05 19:42 | 29.77952 | 29.94610 | 37116 ft | 516 kts | 139° |
| 2026-05-05 19:43 | 29.72933 | 30.00519 | 37121 ft | 515 kts | 139° |
| 2026-05-05 19:43 | 29.67922 | 30.06408 | 37120 ft | 515 kts | 139° |
| 2026-05-05 19:44 | 29.63756 | 30.11297 | 37112 ft | 515 kts | 139° |
| 2026-05-05 19:44 | 29.58746 | 30.17168 | 37115 ft | 514 kts | 139° |
| 2026-05-05 19:45 | 29.52915 | 30.23991 | 37117 ft | 514 kts | 139° |
| 2026-05-05 19:45 | 29.47903 | 30.29848 | 37123 ft | 514 kts | 139° |
| 2026-05-05 19:46 | 29.43701 | 30.34752 | 37121 ft | 514 kts | 140° |
| 2026-05-05 19:46 | 29.38715 | 30.40567 | 37107 ft | 514 kts | 139° |
| 2026-05-05 19:47 | 29.33746 | 30.46472 | 37120 ft | 515 kts | 139° |
| 2026-05-05 19:47 | 29.28795 | 30.52397 | 37119 ft | 515 kts | 139° |
| 2026-05-05 19:48 | 29.23838 | 30.58310 | 37115 ft | 514 kts | 139° |
| 2026-05-05 19:48 | 29.18870 | 30.64212 | 37100 ft | 514 kts | 139° |
| 2026-05-05 19:49 | 29.13900 | 30.70104 | 37111 ft | 514 kts | 139° |
| 2026-05-05 19:49 | 29.08925 | 30.75995 | 37102 ft | 514 kts | 140° |
| 2026-05-05 19:50 | 29.03991 | 30.81830 | 37107 ft | 513 kts | 140° |
| 2026-05-05 19:50 | 28.99030 | 30.87688 | 37117 ft | 513 kts | 140° |
| 2026-05-05 19:51 | 28.94066 | 30.93540 | 37107 ft | 513 kts | 140° |
| 2026-05-05 19:51 | 28.89104 | 30.99382 | 37111 ft | 512 kts | 140° |
| 2026-05-05 19:52 | 28.84137 | 31.05221 | 37110 ft | 512 kts | 140° |
| 2026-05-05 19:52 | 28.79165 | 31.11059 | 37100 ft | 512 kts | 140° |
| 2026-05-05 19:53 | 28.74197 | 31.16884 | 37101 ft | 512 kts | 140° |
| 2026-05-05 19:53 | 28.69237 | 31.22698 | 37097 ft | 512 kts | 140° |
| 2026-05-05 19:54 | 28.64414 | 31.28688 | 37100 ft | 514 kts | 138° |
| 2026-05-05 19:54 | 28.59693 | 31.34733 | 37090 ft | 514 kts | 138° |
| 2026-05-05 19:55 | 28.54923 | 31.40793 | 37100 ft | 514 kts | 138° |
| 2026-05-05 19:55 | 28.50133 | 31.46819 | 37103 ft | 513 kts | 138° |
| 2026-05-05 19:56 | 28.45327 | 31.52841 | 37096 ft | 513 kts | 139° |
| 2026-05-05 19:56 | 28.40525 | 31.58853 | 37102 ft | 513 kts | 139° |
| 2026-05-05 19:57 | 28.35726 | 31.64855 | 37098 ft | 513 kts | 139° |
| 2026-05-05 19:57 | 28.30953 | 31.70818 | 37101 ft | 513 kts | 139° |
| 2026-05-05 19:58 | 28.26170 | 31.76786 | 37106 ft | 513 kts | 139° |
| 2026-05-05 19:58 | 28.21366 | 31.82769 | 37105 ft | 513 kts | 139° |
| 2026-05-05 19:59 | 28.16562 | 31.88743 | 37108 ft | 513 kts | 139° |
| 2026-05-05 19:59 | 28.11756 | 31.94715 | 37113 ft | 513 kts | 139° |
| 2026-05-05 20:00 | 28.06944 | 32.00685 | 37106 ft | 512 kts | 139° |
| 2026-05-05 20:00 | 28.02454 | 32.07004 | 37103 ft | 520 kts | 130° |
| 2026-05-05 20:01 | 27.98845 | 32.14174 | 37106 ft | 525 kts | 124° |
| 2026-05-05 20:01 | 27.95414 | 32.21472 | 37090 ft | 525 kts | 124° |
| 2026-05-05 20:02 | 27.91954 | 32.28742 | 37076 ft | 525 kts | 124° |
| 2026-05-05 20:02 | 27.88460 | 32.35984 | 37062 ft | 524 kts | 125° |
| 2026-05-05 20:03 | 27.84980 | 32.43159 | 37063 ft | 524 kts | 125° |
| 2026-05-05 20:03 | 27.81476 | 32.50376 | 37060 ft | 524 kts | 125° |
| 2026-05-05 20:04 | 27.77966 | 32.57598 | 37051 ft | 524 kts | 125° |
| 2026-05-05 20:04 | 27.74455 | 32.64811 | 37041 ft | 524 kts | 125° |
| 2026-05-05 20:05 | 27.71295 | 32.71293 | 37049 ft | 524 kts | 125° |
| 2026-05-05 20:05 | 27.67774 | 32.78502 | 37050 ft | 524 kts | 125° |
| 2026-05-05 20:06 | 27.64252 | 32.85704 | 37037 ft | 525 kts | 125° |
| 2026-05-05 20:06 | 27.60720 | 32.92913 | 37033 ft | 525 kts | 126° |
| 2026-05-05 20:07 | 27.57208 | 33.00067 | 37038 ft | 525 kts | 126° |
| 2026-05-05 20:07 | 27.53670 | 33.07265 | 37022 ft | 525 kts | 126° |
| 2026-05-05 20:08 | 27.50128 | 33.14460 | 37041 ft | 525 kts | 126° |
| 2026-05-05 20:08 | 27.46584 | 33.21645 | 37016 ft | 524 kts | 126° |
| 2026-05-05 20:09 | 27.43320 | 33.28252 | 37029 ft | 524 kts | 126° |
| 2026-05-05 20:09 | 27.39776 | 33.35414 | 37019 ft | 524 kts | 126° |
| 2026-05-05 20:10 | 27.36246 | 33.42537 | 37016 ft | 523 kts | 126° |
| 2026-05-05 20:10 | 27.32704 | 33.49675 | 37018 ft | 523 kts | 126° |
| 2026-05-05 20:11 | 27.29154 | 33.56820 | 37011 ft | 523 kts | 126° |
| 2026-05-05 20:11 | 27.25606 | 33.63949 | 37017 ft | 523 kts | 126° |
| 2026-05-05 20:12 | 27.22055 | 33.71076 | 37019 ft | 522 kts | 126° |
| 2026-05-05 20:12 | 27.18505 | 33.78204 | 37022 ft | 523 kts | 125° |
| 2026-05-05 20:13 | 27.15582 | 33.85494 | 37025 ft | 530 kts | 118° |
| 2026-05-05 20:13 | 27.12905 | 33.93223 | 37012 ft | 531 kts | 118° |
| 2026-05-05 20:14 | 27.10204 | 34.00935 | 37006 ft | 531 kts | 118° |
| 2026-05-05 20:14 | 27.07472 | 34.08582 | 36998 ft | 531 kts | 118° |
| 2026-05-05 20:15 | 27.04713 | 34.16270 | 36992 ft | 531 kts | 118° |
| 2026-05-05 20:15 | 27.01955 | 34.23959 | 36986 ft | 531 kts | 118° |
| 2026-05-05 20:16 | 26.99409 | 34.31049 | 36987 ft | 532 kts | 118° |
| 2026-05-05 20:16 | 26.96648 | 34.38736 | 36984 ft | 532 kts | 119° |
| 2026-05-05 20:17 | 26.93880 | 34.46429 | 36987 ft | 532 kts | 119° |
| 2026-05-05 20:17 | 26.91107 | 34.54120 | 36985 ft | 532 kts | 119° |
| 2026-05-05 20:18 | 26.88323 | 34.61825 | 36986 ft | 533 kts | 119° |
| 2026-05-05 20:18 | 26.85559 | 34.69460 | 36985 ft | 533 kts | 119° |
| 2026-05-05 20:19 | 26.82769 | 34.77149 | 36981 ft | 533 kts | 119° |
| 2026-05-05 20:19 | 26.79968 | 34.84854 | 36983 ft | 533 kts | 120° |
| 2026-05-05 20:20 | 26.77168 | 34.92542 | 36974 ft | 533 kts | 120° |
| 2026-05-05 20:20 | 26.74364 | 35.00228 | 36986 ft | 533 kts | 120° |
| 2026-05-05 20:21 | 26.71558 | 35.07903 | 36979 ft | 533 kts | 120° |
| 2026-05-05 20:21 | 26.68744 | 35.15583 | 36972 ft | 533 kts | 120° |
| 2026-05-05 20:22 | 26.65928 | 35.23255 | 36974 ft | 533 kts | 120° |
| 2026-05-05 20:22 | 26.63110 | 35.30920 | 36971 ft | 533 kts | 120° |
| 2026-05-05 20:23 | 26.60303 | 35.38537 | 36969 ft | 533 kts | 120° |
| 2026-05-05 20:23 | 26.57474 | 35.46205 | 36964 ft | 533 kts | 120° |
| 2026-05-05 20:24 | 26.54614 | 35.53840 | 36961 ft | 532 kts | 121° |
| 2026-05-05 20:24 | 26.51693 | 35.61445 | 36958 ft | 532 kts | 121° |
| 2026-05-05 20:25 | 26.48766 | 35.69045 | 36958 ft | 533 kts | 121° |
| 2026-05-05 20:25 | 26.45846 | 35.76648 | 36951 ft | 533 kts | 121° |
| 2026-05-05 20:26 | 26.42928 | 35.84242 | 36952 ft | 533 kts | 121° |
| 2026-05-05 20:26 | 26.40001 | 35.91847 | 36952 ft | 533 kts | 121° |
| 2026-05-05 20:27 | 26.37089 | 35.99397 | 36948 ft | 533 kts | 121° |
| 2026-05-05 20:27 | 26.34160 | 36.06976 | 36946 ft | 533 kts | 121° |
| 2026-05-05 20:28 | 26.31227 | 36.14549 | 36942 ft | 533 kts | 121° |
| 2026-05-05 20:28 | 26.28290 | 36.22121 | 36941 ft | 533 kts | 122° |
| 2026-05-05 20:29 | 26.25580 | 36.29094 | 36941 ft | 533 kts | 122° |
| 2026-05-05 20:29 | 26.22632 | 36.36667 | 36940 ft | 533 kts | 122° |
| 2026-05-05 20:30 | 26.19683 | 36.44234 | 36937 ft | 533 kts | 122° |
| 2026-05-05 20:30 | 26.16597 | 36.51645 | 36939 ft | 526 kts | 127° |
| 2026-05-05 20:31 | 26.13077 | 36.58772 | 36940 ft | 525 kts | 128° |
| 2026-05-05 20:31 | 26.09515 | 36.65878 | 36934 ft | 526 kts | 128° |
| 2026-05-05 20:32 | 26.05972 | 36.73020 | 36937 ft | 527 kts | 127° |
| 2026-05-05 20:32 | 26.02440 | 36.80182 | 36937 ft | 527 kts | 127° |
| 2026-05-05 20:33 | 25.99508 | 36.86124 | 36945 ft | 527 kts | 127° |
| 2026-05-05 20:33 | 25.95974 | 36.93266 | 36936 ft | 528 kts | 127° |
| 2026-05-05 20:34 | 25.92434 | 37.00407 | 36935 ft | 528 kts | 127° |
| 2026-05-05 20:34 | 25.88890 | 37.07542 | 36951 ft | 528 kts | 128° |
| 2026-05-05 20:35 | 25.85338 | 37.14685 | 36947 ft | 527 kts | 128° |
| 2026-05-05 20:35 | 25.81789 | 37.21813 | 36948 ft | 527 kts | 128° |
| 2026-05-05 20:36 | 25.78240 | 37.28931 | 36946 ft | 527 kts | 128° |
| 2026-05-05 20:36 | 25.74695 | 37.36049 | 36952 ft | 527 kts | 128° |
| 2026-05-05 20:37 | 25.71176 | 37.43112 | 36963 ft | 526 kts | 128° |
| 2026-05-05 20:37 | 25.69148 | 37.47174 | 36956 ft | 525 kts | 128° |
| 2026-05-05 20:38 | 25.66659 | 37.52157 | 36967 ft | 523 kts | 128° |
| 2026-05-05 20:38 | 25.63125 | 37.59217 | 36959 ft | 525 kts | 128° |
| 2026-05-05 20:39 | 25.59577 | 37.66289 | 36962 ft | 526 kts | 128° |
| 2026-05-05 20:39 | 25.56011 | 37.73391 | 36948 ft | 528 kts | 128° |
| 2026-05-05 20:40 | 25.52439 | 37.80498 | 36942 ft | 529 kts | 128° |
| 2026-05-05 20:40 | 25.48856 | 37.87619 | 36938 ft | 529 kts | 128° |
| 2026-05-05 20:41 | 25.45272 | 37.94725 | 36931 ft | 529 kts | 128° |
| 2026-05-05 20:41 | 25.41709 | 38.01778 | 36916 ft | 528 kts | 128° |
| 2026-05-05 20:42 | 25.38128 | 38.08861 | 36902 ft | 527 kts | 128° |
| 2026-05-05 20:42 | 25.34551 | 38.15923 | 36902 ft | 526 kts | 128° |
| 2026-05-05 20:43 | 25.30980 | 38.22960 | 36910 ft | 525 kts | 128° |
| 2026-05-05 20:43 | 25.27404 | 38.29994 | 36910 ft | 524 kts | 128° |
| 2026-05-05 20:44 | 25.23828 | 38.37023 | 36915 ft | 523 kts | 128° |
| 2026-05-05 20:44 | 25.20258 | 38.44026 | 36922 ft | 522 kts | 128° |
| 2026-05-05 20:45 | 25.14909 | 38.54503 | 36923 ft | 522 kts | 128° |
| 2026-05-05 20:45 | 25.11336 | 38.61491 | 36932 ft | 522 kts | 128° |
| 2026-05-05 20:46 | 25.07764 | 38.68470 | 36943 ft | 522 kts | 129° |
| 2026-05-05 20:46 | 25.04210 | 38.75404 | 36924 ft | 522 kts | 128° |
| 2026-05-05 20:47 | 25.00633 | 38.82376 | 36938 ft | 522 kts | 128° |
| 2026-05-05 20:47 | 24.97052 | 38.89340 | 36955 ft | 522 kts | 129° |
| 2026-05-05 20:48 | 24.93740 | 38.95753 | 36945 ft | 524 kts | 129° |
| 2026-05-05 20:48 | 24.90115 | 39.02728 | 36950 ft | 524 kts | 129° |
| 2026-05-05 20:49 | 24.86486 | 39.09707 | 36946 ft | 525 kts | 129° |
| 2026-05-05 20:49 | 24.82856 | 39.16685 | 36944 ft | 525 kts | 129° |
| 2026-05-05 20:50 | 24.79220 | 39.23664 | 36949 ft | 526 kts | 129° |
| 2026-05-05 20:50 | 24.75581 | 39.30640 | 36962 ft | 526 kts | 129° |
| 2026-05-05 20:51 | 24.71940 | 39.37614 | 36955 ft | 525 kts | 129° |
| 2026-05-05 20:51 | 24.68313 | 39.44548 | 36960 ft | 526 kts | 129° |
| 2026-05-05 20:52 | 24.64665 | 39.51515 | 36974 ft | 526 kts | 129° |
| 2026-05-05 20:52 | 24.61015 | 39.58482 | 36967 ft | 525 kts | 129° |
| 2026-05-05 20:53 | 24.57380 | 39.65452 | 36990 ft | 527 kts | 126° |
| 2026-05-05 20:53 | 24.54719 | 39.73034 | 36994 ft | 543 kts | 112° |
| 2026-05-05 20:54 | 24.53478 | 39.81316 | 36996 ft | 553 kts | 102° |
| 2026-05-05 20:54 | 24.52774 | 39.89728 | 36978 ft | 554 kts | 101° |
| 2026-05-05 20:55 | 24.52053 | 39.98152 | 36973 ft | 553 kts | 102° |
| 2026-05-05 20:55 | 24.51263 | 40.06538 | 36966 ft | 552 kts | 102° |
| 2026-05-05 20:56 | 24.50442 | 40.14903 | 36961 ft | 551 kts | 102° |
| 2026-05-05 20:56 | 24.49685 | 40.22585 | 36958 ft | 550 kts | 102° |
| 2026-05-05 20:57 | 24.48869 | 40.30879 | 36960 ft | 549 kts | 102° |
| 2026-05-05 20:57 | 24.48046 | 40.39219 | 36956 ft | 549 kts | 102° |
| 2026-05-05 20:58 | 24.47219 | 40.47542 | 36960 ft | 548 kts | 102° |
| 2026-05-05 20:58 | 24.46390 | 40.55851 | 36956 ft | 547 kts | 102° |
| 2026-05-05 20:59 | 24.45555 | 40.64158 | 36961 ft | 547 kts | 102° |
| 2026-05-05 20:59 | 24.44717 | 40.72453 | 36964 ft | 547 kts | 102° |
| 2026-05-05 21:00 | 24.43875 | 40.80746 | 36965 ft | 546 kts | 102° |
| 2026-05-05 21:00 | 24.43030 | 40.89026 | 36964 ft | 546 kts | 102° |
| 2026-05-05 21:01 | 24.42179 | 40.97314 | 36988 ft | 546 kts | 102° |
| 2026-05-05 21:01 | 24.41326 | 41.05589 | 36991 ft | 546 kts | 102° |
| 2026-05-05 21:02 | 24.40463 | 41.13851 | 36996 ft | 546 kts | 102° |
| 2026-05-05 21:02 | 24.39589 | 41.22126 | 37001 ft | 545 kts | 102° |
| 2026-05-05 21:03 | 24.38712 | 41.30394 | 36999 ft | 545 kts | 103° |
| 2026-05-05 21:03 | 24.37839 | 41.38594 | 36994 ft | 545 kts | 103° |
| 2026-05-05 21:04 | 24.36957 | 41.46843 | 36990 ft | 544 kts | 103° |
| 2026-05-05 21:04 | 24.36070 | 41.55089 | 36993 ft | 544 kts | 103° |
| 2026-05-05 21:05 | 24.35179 | 41.63334 | 36996 ft | 543 kts | 103° |
| 2026-05-05 21:05 | 24.34285 | 41.71553 | 36994 ft | 543 kts | 103° |
| 2026-05-05 21:06 | 24.33384 | 41.79770 | 36993 ft | 542 kts | 104° |
| 2026-05-05 21:06 | 24.31837 | 41.87713 | 36991 ft | 532 kts | 113° |
| 2026-05-05 21:07 | 24.29734 | 41.95475 | 36985 ft | 531 kts | 114° |
| 2026-05-05 21:07 | 24.27620 | 42.03249 | 36983 ft | 532 kts | 113° |
| 2026-05-05 21:08 | 24.25547 | 42.11033 | 36984 ft | 532 kts | 113° |
| 2026-05-05 21:08 | 24.23488 | 42.18831 | 36992 ft | 533 kts | 113° |
| 2026-05-05 21:09 | 24.21423 | 42.26637 | 36982 ft | 533 kts | 113° |
| 2026-05-05 21:09 | 24.19352 | 42.34433 | 36987 ft | 532 kts | 113° |
| 2026-05-05 21:10 | 24.17291 | 42.42166 | 36990 ft | 532 kts | 113° |
| 2026-05-05 21:10 | 24.15215 | 42.49942 | 36987 ft | 532 kts | 113° |
| 2026-05-05 21:11 | 24.13137 | 42.57708 | 36990 ft | 531 kts | 113° |
| 2026-05-05 21:11 | 24.11055 | 42.65472 | 36980 ft | 531 kts | 113° |
| 2026-05-05 21:12 | 24.08968 | 42.73237 | 37002 ft | 531 kts | 112° |
| 2026-05-05 21:12 | 24.06879 | 42.80994 | 37001 ft | 531 kts | 112° |
| 2026-05-05 21:13 | 24.04790 | 42.88735 | 36999 ft | 530 kts | 112° |
| 2026-05-05 21:13 | 24.02698 | 42.96476 | 37005 ft | 530 kts | 112° |
| 2026-05-05 21:14 | 24.00607 | 43.04203 | 36994 ft | 530 kts | 112° |
| 2026-05-05 21:14 | 23.98522 | 43.11894 | 36996 ft | 530 kts | 112° |
| 2026-05-05 21:15 | 23.96420 | 43.19632 | 36997 ft | 530 kts | 112° |
| 2026-05-05 21:15 | 23.94316 | 43.27360 | 36989 ft | 530 kts | 112° |
| 2026-05-05 21:16 | 23.92209 | 43.35082 | 36995 ft | 531 kts | 112° |
| 2026-05-05 21:16 | 23.90091 | 43.42824 | 36987 ft | 531 kts | 112° |
| 2026-05-05 21:17 | 23.87984 | 43.50513 | 36980 ft | 531 kts | 112° |
| 2026-05-05 21:17 | 23.85862 | 43.58242 | 36974 ft | 531 kts | 112° |
| 2026-05-05 21:18 | 23.83735 | 43.65972 | 36967 ft | 531 kts | 112° |
| 2026-05-05 21:18 | 23.81604 | 43.73699 | 36955 ft | 531 kts | 112° |
| 2026-05-05 21:19 | 23.79488 | 43.81359 | 36948 ft | 530 kts | 112° |
| 2026-05-05 21:19 | 23.77536 | 43.89128 | 36947 ft | 534 kts | 107° |
| 2026-05-05 21:20 | 23.76651 | 43.97223 | 36947 ft | 539 kts | 98° |
| 2026-05-05 21:20 | 23.76124 | 44.05390 | 36930 ft | 539 kts | 98° |
| 2026-05-05 21:21 | 23.75666 | 44.12162 | 36938 ft | 538 kts | 99° |
| 2026-05-05 21:21 | 23.75067 | 44.20292 | 36937 ft | 537 kts | 99° |
| 2026-05-05 21:22 | 23.74445 | 44.28415 | 36938 ft | 536 kts | 99° |
| 2026-05-05 21:22 | 23.73822 | 44.36520 | 36941 ft | 536 kts | 99° |
| 2026-05-05 21:23 | 23.73198 | 44.44623 | 36937 ft | 535 kts | 99° |
| 2026-05-05 21:23 | 23.72572 | 44.52720 | 36933 ft | 535 kts | 99° |
| 2026-05-05 21:24 | 23.71943 | 44.60797 | 36941 ft | 535 kts | 99° |
| 2026-05-05 21:24 | 23.71309 | 44.68877 | 36937 ft | 534 kts | 99° |
| 2026-05-05 21:25 | 23.70670 | 44.76965 | 36938 ft | 534 kts | 99° |
| 2026-05-05 21:25 | 23.70029 | 44.85033 | 36932 ft | 534 kts | 99° |
| 2026-05-05 21:26 | 23.69386 | 44.93054 | 36930 ft | 534 kts | 99° |
| 2026-05-05 21:26 | 23.68733 | 45.01125 | 36930 ft | 534 kts | 99° |
| 2026-05-05 21:27 | 23.68075 | 45.09196 | 36925 ft | 534 kts | 99° |
| 2026-05-05 21:27 | 23.67415 | 45.17276 | 36917 ft | 535 kts | 99° |
| 2026-05-05 21:28 | 23.66749 | 45.25358 | 36911 ft | 535 kts | 99° |
| 2026-05-05 21:28 | 23.66082 | 45.33430 | 36907 ft | 535 kts | 99° |
| 2026-05-05 21:29 | 23.65411 | 45.41512 | 36902 ft | 535 kts | 99° |
| 2026-05-05 21:29 | 23.64735 | 45.49591 | 36891 ft | 535 kts | 99° |
| 2026-05-05 21:30 | 23.64056 | 45.57673 | 36891 ft | 535 kts | 99° |
| 2026-05-05 21:30 | 23.63374 | 45.65740 | 36881 ft | 534 kts | 99° |
| 2026-05-05 21:31 | 23.62692 | 45.73753 | 36876 ft | 533 kts | 99° |
| 2026-05-05 21:31 | 23.62005 | 45.81800 | 36874 ft | 532 kts | 99° |
| 2026-05-05 21:32 | 23.61316 | 45.89827 | 36877 ft | 531 kts | 99° |
| 2026-05-05 21:32 | 23.60624 | 45.97846 | 36883 ft | 531 kts | 99° |
| 2026-05-05 21:33 | 23.59927 | 46.05861 | 36884 ft | 530 kts | 99° |
| 2026-05-05 21:33 | 23.59227 | 46.13863 | 36889 ft | 530 kts | 99° |
| 2026-05-05 21:34 | 23.58525 | 46.21857 | 36897 ft | 530 kts | 99° |
| 2026-05-05 21:34 | 23.57816 | 46.29850 | 36885 ft | 530 kts | 99° |
| 2026-05-05 21:35 | 23.57110 | 46.37795 | 36892 ft | 529 kts | 99° |
| 2026-05-05 21:35 | 23.56396 | 46.45777 | 36894 ft | 528 kts | 99° |
| 2026-05-05 21:36 | 23.55679 | 46.53745 | 36883 ft | 528 kts | 99° |
| 2026-05-05 21:36 | 23.54949 | 46.61700 | 36886 ft | 527 kts | 99° |
| 2026-05-05 21:37 | 23.54213 | 46.69653 | 36880 ft | 527 kts | 99° |
| 2026-05-05 21:37 | 23.53474 | 46.77600 | 36869 ft | 527 kts | 99° |
| 2026-05-05 21:38 | 23.52732 | 46.85553 | 36863 ft | 527 kts | 99° |
| 2026-05-05 21:38 | 23.51987 | 46.93493 | 36850 ft | 527 kts | 99° |
| 2026-05-05 21:39 | 23.51238 | 47.01429 | 36842 ft | 527 kts | 99° |
| 2026-05-05 21:39 | 23.50484 | 47.09384 | 36837 ft | 526 kts | 99° |
| 2026-05-05 21:40 | 23.49733 | 47.17255 | 36832 ft | 526 kts | 99° |
| 2026-05-05 21:40 | 23.48973 | 47.25176 | 36824 ft | 525 kts | 99° |
| 2026-05-05 21:41 | 23.48211 | 47.33082 | 36827 ft | 525 kts | 99° |
| 2026-05-05 21:41 | 23.47444 | 47.40991 | 36828 ft | 524 kts | 99° |
| 2026-05-05 21:42 | 23.46676 | 47.48876 | 36825 ft | 524 kts | 99° |
| 2026-05-05 21:42 | 23.45906 | 47.56765 | 36820 ft | 523 kts | 99° |
| 2026-05-05 21:43 | 23.45139 | 47.64638 | 36821 ft | 523 kts | 99° |
| 2026-05-05 21:43 | 23.44370 | 47.72509 | 36822 ft | 522 kts | 99° |
| 2026-05-05 21:44 | 23.43597 | 47.80366 | 36819 ft | 522 kts | 99° |
| 2026-05-05 21:44 | 23.42820 | 47.88216 | 36814 ft | 521 kts | 99° |
| 2026-05-05 21:45 | 23.42040 | 47.96050 | 36797 ft | 520 kts | 99° |
| 2026-05-05 21:45 | 23.41263 | 48.03831 | 36799 ft | 519 kts | 99° |
| 2026-05-05 21:46 | 23.40478 | 48.11639 | 36802 ft | 519 kts | 99° |
| 2026-05-05 21:46 | 23.39690 | 48.19449 | 36790 ft | 518 kts | 99° |
| 2026-05-05 21:47 | 23.38897 | 48.27251 | 36795 ft | 518 kts | 100° |
| 2026-05-05 21:47 | 23.37175 | 48.34790 | 36797 ft | 510 kts | 115° |
| 2026-05-05 21:48 | 23.33975 | 48.41608 | 36797 ft | 503 kts | 127° |
| 2026-05-05 21:48 | 23.30162 | 48.47993 | 36787 ft | 504 kts | 127° |
| 2026-05-05 21:49 | 23.26351 | 48.54354 | 36786 ft | 505 kts | 127° |
| 2026-05-05 21:49 | 23.22543 | 48.60797 | 36790 ft | 507 kts | 127° |
| 2026-05-05 21:50 | 23.18747 | 48.67261 | 36777 ft | 508 kts | 127° |
| 2026-05-05 21:50 | 23.14942 | 48.73739 | 36793 ft | 509 kts | 126° |
| 2026-05-05 21:51 | 23.11123 | 48.80228 | 36785 ft | 510 kts | 126° |
| 2026-05-05 21:51 | 23.07294 | 48.86721 | 36781 ft | 510 kts | 126° |
| 2026-05-05 21:52 | 23.01571 | 48.96410 | 36781 ft | 510 kts | 126° |
| 2026-05-05 21:53 | 22.98031 | 49.02394 | 36771 ft | 510 kts | 126° |
| 2026-05-05 21:53 | 22.94193 | 49.08875 | 36770 ft | 510 kts | 126° |
| 2026-05-05 21:54 | 22.90349 | 49.15357 | 36772 ft | 510 kts | 126° |
| 2026-05-05 21:54 | 22.86508 | 49.21827 | 36767 ft | 509 kts | 126° |
| 2026-05-05 21:55 | 22.82676 | 49.28274 | 36769 ft | 508 kts | 126° |
| 2026-05-05 21:55 | 22.78844 | 49.34712 | 36766 ft | 508 kts | 126° |
| 2026-05-05 21:56 | 22.75019 | 49.41131 | 36759 ft | 507 kts | 126° |
| 2026-05-05 21:56 | 22.71220 | 49.47498 | 36766 ft | 506 kts | 126° |
| 2026-05-05 21:57 | 22.67401 | 49.53891 | 36768 ft | 505 kts | 126° |
| 2026-05-05 21:57 | 22.63584 | 49.60274 | 36766 ft | 504 kts | 126° |
| 2026-05-05 21:58 | 22.59772 | 49.66641 | 36765 ft | 504 kts | 126° |
| 2026-05-05 21:58 | 22.55989 | 49.73020 | 36776 ft | 505 kts | 123° |
| 2026-05-05 21:59 | 22.53059 | 49.79962 | 36772 ft | 509 kts | 112° |
| 2026-05-05 21:59 | 22.51236 | 49.87387 | 36762 ft | 512 kts | 105° |
| 2026-05-05 22:00 | 22.49739 | 49.94916 | 36763 ft | 512 kts | 104° |
| 2026-05-05 22:00 | 22.48228 | 50.02451 | 36767 ft | 512 kts | 105° |
| 2026-05-05 22:01 | 22.46684 | 50.09935 | 36763 ft | 513 kts | 105° |
| 2026-05-05 22:01 | 22.45111 | 50.17455 | 36765 ft | 513 kts | 105° |
| 2026-05-05 22:02 | 22.43532 | 50.24974 | 36769 ft | 513 kts | 105° |
| 2026-05-05 22:02 | 22.41950 | 50.32502 | 36769 ft | 513 kts | 105° |
| 2026-05-05 22:03 | 22.40366 | 50.40028 | 36770 ft | 513 kts | 105° |
| 2026-05-05 22:03 | 22.38778 | 50.47553 | 36770 ft | 513 kts | 105° |
| 2026-05-05 22:04 | 22.37192 | 50.55054 | 36771 ft | 512 kts | 105° |
| 2026-05-05 22:04 | 22.35610 | 50.62514 | 36764 ft | 512 kts | 105° |
| 2026-05-05 22:05 | 22.34019 | 50.70003 | 36769 ft | 511 kts | 105° |
| 2026-05-05 22:05 | 22.32425 | 50.77487 | 36778 ft | 511 kts | 105° |
| 2026-05-05 22:06 | 22.30828 | 50.84964 | 36771 ft | 511 kts | 105° |
| 2026-05-05 22:06 | 22.29227 | 50.92446 | 36775 ft | 511 kts | 105° |
| 2026-05-05 22:07 | 22.27625 | 50.99912 | 36770 ft | 511 kts | 105° |
| 2026-05-05 22:07 | 22.26014 | 51.07403 | 36771 ft | 511 kts | 105° |
| 2026-05-05 22:08 | 22.24676 | 51.13612 | 36771 ft | 511 kts | 105° |
| 2026-05-05 22:08 | 22.23059 | 51.21097 | 36768 ft | 512 kts | 105° |
| 2026-05-05 22:09 | 22.21177 | 51.29790 | 36768 ft | 512 kts | 105° |
| 2026-05-05 22:09 | 22.19554 | 51.37266 | 36770 ft | 512 kts | 105° |
| 2026-05-05 22:10 | 22.18189 | 51.43542 | 36769 ft | 512 kts | 105° |
| 2026-05-05 22:10 | 22.16558 | 51.51023 | 36770 ft | 512 kts | 105° |
| 2026-05-05 22:11 | 22.14923 | 51.58505 | 36767 ft | 512 kts | 105° |
| 2026-05-05 22:11 | 22.13296 | 51.65935 | 36764 ft | 512 kts | 105° |
| 2026-05-05 22:12 | 22.11652 | 51.73422 | 36767 ft | 512 kts | 105° |
| 2026-05-05 22:12 | 22.10007 | 51.80896 | 36765 ft | 512 kts | 105° |
| 2026-05-05 22:13 | 22.08358 | 51.88376 | 36764 ft | 512 kts | 105° |
| 2026-05-05 22:13 | 22.06706 | 51.95849 | 36764 ft | 512 kts | 105° |
| 2026-05-05 22:14 | 22.05049 | 52.03327 | 36761 ft | 512 kts | 105° |
| 2026-05-05 22:14 | 22.03402 | 52.10747 | 36759 ft | 512 kts | 105° |
| 2026-05-05 22:15 | 22.01741 | 52.18210 | 36764 ft | 512 kts | 105° |
| 2026-05-05 22:15 | 22.00076 | 52.25675 | 36759 ft | 512 kts | 105° |
| 2026-05-05 22:16 | 21.98409 | 52.33133 | 36763 ft | 512 kts | 105° |
| 2026-05-05 22:16 | 21.96739 | 52.40585 | 36756 ft | 512 kts | 105° |
| 2026-05-05 22:17 | 21.95065 | 52.48040 | 36757 ft | 511 kts | 105° |
| 2026-05-05 22:17 | 21.93391 | 52.55480 | 36763 ft | 511 kts | 105° |
| 2026-05-05 22:18 | 21.91715 | 52.62914 | 36761 ft | 511 kts | 105° |
| 2026-05-05 22:18 | 21.90135 | 52.70323 | 36762 ft | 511 kts | 101° |
| 2026-05-05 22:19 | 21.89470 | 52.77949 | 36769 ft | 512 kts | 94° |
| 2026-05-05 22:19 | 21.89108 | 52.85616 | 36762 ft | 513 kts | 94° |
| 2026-05-05 22:20 | 21.88726 | 52.93277 | 36756 ft | 513 kts | 94° |
| 2026-05-05 22:20 | 21.88303 | 53.00943 | 36764 ft | 512 kts | 95° |
| 2026-05-05 22:21 | 21.87863 | 53.08600 | 36761 ft | 512 kts | 95° |
| 2026-05-05 22:21 | 21.87419 | 53.16261 | 36758 ft | 512 kts | 95° |
| 2026-05-05 22:22 | 21.86973 | 53.23930 | 36759 ft | 513 kts | 95° |
| 2026-05-05 22:22 | 21.86529 | 53.31533 | 36761 ft | 513 kts | 95° |
| 2026-05-05 22:23 | 21.86078 | 53.39189 | 36761 ft | 512 kts | 95° |
| 2026-05-05 22:23 | 21.85623 | 53.46846 | 36758 ft | 512 kts | 95° |
| 2026-05-05 22:24 | 21.85165 | 53.54502 | 36761 ft | 512 kts | 95° |
| 2026-05-05 22:24 | 21.84703 | 53.62163 | 36763 ft | 512 kts | 95° |
| 2026-05-05 22:25 | 21.84237 | 53.69817 | 36763 ft | 512 kts | 95° |
| 2026-05-05 22:25 | 21.83769 | 53.77462 | 36747 ft | 512 kts | 95° |
| 2026-05-05 22:26 | 21.83297 | 53.85117 | 36761 ft | 513 kts | 95° |
| 2026-05-05 22:26 | 21.82820 | 53.92781 | 36760 ft | 513 kts | 95° |
| 2026-05-05 22:27 | 21.82368 | 54.00005 | 36763 ft | 514 kts | 95° |
| 2026-05-05 22:27 | 21.81896 | 54.07482 | 36761 ft | 514 kts | 95° |
| 2026-05-05 22:28 | 21.81408 | 54.15168 | 36759 ft | 514 kts | 95° |
| 2026-05-05 22:28 | 21.80916 | 54.22848 | 36756 ft | 514 kts | 95° |
| 2026-05-05 22:29 | 21.80422 | 54.30525 | 36761 ft | 514 kts | 95° |
| 2026-05-05 22:29 | 21.79923 | 54.38191 | 36761 ft | 514 kts | 95° |
| 2026-05-05 22:30 | 21.79422 | 54.45862 | 36758 ft | 513 kts | 95° |
| 2026-05-05 22:30 | 21.79579 | 54.53482 | 36751 ft | 511 kts | 76° |
| 2026-05-05 22:30 | 21.80738 | 54.57034 | 36758 ft | 511 kts | 64° |
| 2026-05-05 22:31 | 21.82582 | 54.60288 | 36751 ft | 508 kts | 49° |
| 2026-05-05 22:31 | 21.87274 | 54.65944 | 36749 ft | 508 kts | 46° |
| 2026-05-05 22:32 | 21.92023 | 54.71607 | 36761 ft | 510 kts | 47° |
| 2026-05-05 22:32 | 21.96730 | 54.77349 | 36759 ft | 512 kts | 47° |
| 2026-05-05 22:33 | 22.01422 | 54.83144 | 36760 ft | 514 kts | 47° |
| 2026-05-05 22:33 | 22.06121 | 54.88960 | 36767 ft | 515 kts | 47° |
| 2026-05-05 22:34 | 22.10466 | 54.94338 | 36762 ft | 515 kts | 47° |
| 2026-05-05 22:34 | 22.15174 | 55.00167 | 36763 ft | 515 kts | 47° |
| 2026-05-05 22:35 | 22.19878 | 55.05997 | 36766 ft | 515 kts | 47° |
| 2026-05-05 22:35 | 22.24578 | 55.11829 | 36765 ft | 514 kts | 47° |
| 2026-05-05 22:36 | 22.29268 | 55.17655 | 36768 ft | 514 kts | 47° |
| 2026-05-05 22:36 | 22.33953 | 55.23482 | 36769 ft | 513 kts | 47° |
| 2026-05-05 22:37 | 22.38598 | 55.29266 | 36773 ft | 513 kts | 47° |
| 2026-05-05 22:37 | 22.43205 | 55.35222 | 36777 ft | 514 kts | 53° |
| 2026-05-05 22:38 | 22.46881 | 55.41846 | 36782 ft | 515 kts | 64° |
| 2026-05-05 22:38 | 22.49628 | 55.48968 | 36782 ft | 516 kts | 68° |
| 2026-05-05 22:39 | 22.52256 | 55.56197 | 36779 ft | 517 kts | 68° |
| 2026-05-05 22:39 | 22.54919 | 55.63428 | 36784 ft | 517 kts | 68° |
| 2026-05-05 22:40 | 22.57617 | 55.70656 | 36863 ft | 520 kts | 67° |
| 2026-05-05 22:40 | 22.58972 | 55.74281 | 37180 ft | 520 kts | 67° |
| 2026-05-05 22:40 | 22.60326 | 55.77904 | 37601 ft | 517 kts | 68° |
| 2026-05-05 22:40 | 22.61670 | 55.81506 | 38046 ft | 514 kts | 68° |
| 2026-05-05 22:41 | 22.63007 | 55.85093 | 38466 ft | 512 kts | 68° |
| 2026-05-05 22:41 | 22.64333 | 55.88658 | 38716 ft | 512 kts | 68° |
| 2026-05-05 22:41 | 22.65666 | 55.92243 | 38741 ft | 514 kts | 68° |
| 2026-05-05 22:42 | 22.68331 | 55.99423 | 38790 ft | 513 kts | 68° |
| 2026-05-05 22:42 | 22.70965 | 56.06528 | 38800 ft | 511 kts | 68° |
| 2026-05-05 22:43 | 22.73395 | 56.13093 | 38810 ft | 509 kts | 68° |
| 2026-05-05 22:43 | 22.76028 | 56.20218 | 38812 ft | 508 kts | 68° |
| 2026-05-05 22:44 | 22.78651 | 56.27327 | 38817 ft | 508 kts | 68° |
| 2026-05-05 22:44 | 22.81275 | 56.34451 | 38823 ft | 509 kts | 68° |
| 2026-05-05 22:45 | 22.83505 | 56.41732 | 38819 ft | 509 kts | 77° |
| 2026-05-05 22:45 | 22.84924 | 56.49269 | 38834 ft | 510 kts | 79° |
| 2026-05-05 22:46 | 22.86290 | 56.56842 | 38837 ft | 511 kts | 79° |
| 2026-05-05 22:46 | 22.87686 | 56.64361 | 38841 ft | 512 kts | 78° |
| 2026-05-05 22:47 | 22.89117 | 56.71936 | 38854 ft | 513 kts | 78° |
| 2026-05-05 22:47 | 22.90550 | 56.79525 | 38866 ft | 513 kts | 78° |
| 2026-05-05 22:48 | 22.91976 | 56.87111 | 38877 ft | 513 kts | 78° |
| 2026-05-05 22:48 | 22.93397 | 56.94703 | 38884 ft | 513 kts | 79° |
| 2026-05-05 22:49 | 22.94813 | 57.02288 | 38897 ft | 513 kts | 79° |
| 2026-05-05 22:49 | 22.96225 | 57.09872 | 38904 ft | 512 kts | 79° |
| 2026-05-05 22:50 | 22.97622 | 57.17398 | 38915 ft | 512 kts | 79° |
| 2026-05-05 22:50 | 22.99025 | 57.24971 | 38917 ft | 511 kts | 79° |
| 2026-05-05 22:51 | 23.00217 | 57.32573 | 38917 ft | 510 kts | 86° |
| 2026-05-05 22:51 | 23.00502 | 57.40266 | 38924 ft | 510 kts | 89° |
| 2026-05-05 22:52 | 23.00675 | 57.47960 | 38921 ft | 510 kts | 89° |
| 2026-05-05 22:52 | 23.00891 | 57.55651 | 38920 ft | 510 kts | 89° |
| 2026-05-05 22:53 | 23.01133 | 57.63347 | 38915 ft | 510 kts | 89° |
| 2026-05-05 22:53 | 23.01373 | 57.71050 | 38899 ft | 511 kts | 89° |
| 2026-05-05 22:54 | 23.01606 | 57.78755 | 38903 ft | 511 kts | 89° |
| 2026-05-05 22:54 | 23.01830 | 57.86467 | 38893 ft | 511 kts | 89° |
| 2026-05-05 22:55 | 23.01876 | 57.92878 | 38889 ft | 511 kts | 91° |
| 2026-05-05 22:55 | 23.01840 | 58.00580 | 38881 ft | 510 kts | 91° |
| 2026-05-05 22:56 | 23.01817 | 58.09526 | 38874 ft | 510 kts | 91° |
| 2026-05-05 22:56 | 23.01817 | 58.15974 | 38879 ft | 510 kts | 91° |
| 2026-05-05 22:57 | 23.01816 | 58.23680 | 38867 ft | 510 kts | 91° |
| 2026-05-05 22:57 | 23.01809 | 58.31375 | 38866 ft | 510 kts | 91° |
| 2026-05-05 22:58 | 23.01805 | 58.39074 | 38863 ft | 510 kts | 90° |
| 2026-05-05 22:58 | 23.02030 | 58.46774 | 38858 ft | 511 kts | 88° |
| 2026-05-05 22:59 | 23.02349 | 58.54424 | 38854 ft | 510 kts | 88° |
| 2026-05-05 22:59 | 23.02633 | 58.62117 | 38846 ft | 510 kts | 89° |
| 2026-05-05 23:00 | 23.03008 | 58.73658 | 38837 ft | 509 kts | 89° |
| 2026-05-05 23:00 | 23.03252 | 58.81349 | 38832 ft | 510 kts | 89° |
| 2026-05-05 23:01 | 23.03494 | 58.89039 | 38820 ft | 509 kts | 89° |
| 2026-05-05 23:01 | 23.03732 | 58.96732 | 38822 ft | 509 kts | 89° |
| 2026-05-05 23:02 | 23.03967 | 59.04411 | 38798 ft | 509 kts | 89° |
| 2026-05-05 23:02 | 23.04189 | 59.12040 | 38797 ft | 509 kts | 89° |
| 2026-05-05 23:03 | 23.04408 | 59.19731 | 38784 ft | 510 kts | 89° |
| 2026-05-05 23:03 | 23.04626 | 59.27429 | 38775 ft | 510 kts | 89° |
| 2026-05-05 23:04 | 23.04841 | 59.35137 | 38770 ft | 510 kts | 89° |
| 2026-05-05 23:04 | 23.05018 | 59.42829 | 38767 ft | 511 kts | 90° |
| 2026-05-05 23:05 | 23.05130 | 59.50543 | 38765 ft | 511 kts | 90° |
| 2026-05-05 23:05 | 23.05239 | 59.58267 | 38766 ft | 511 kts | 90° |
| 2026-05-05 23:06 | 23.05354 | 59.65949 | 38766 ft | 511 kts | 90° |
| 2026-05-05 23:06 | 23.05470 | 59.73673 | 38770 ft | 511 kts | 90° |
| 2026-05-05 23:07 | 23.05581 | 59.81391 | 38773 ft | 511 kts | 90° |
| 2026-05-05 23:07 | 23.05599 | 59.89110 | 38783 ft | 511 kts | 94° |
| 2026-05-05 23:08 | 23.04628 | 59.96715 | 38793 ft | 509 kts | 102° |
| 2026-05-05 23:08 | 23.03205 | 60.04242 | 38788 ft | 509 kts | 103° |
| 2026-05-05 23:09 | 23.01783 | 60.11763 | 38787 ft | 509 kts | 102° |
| 2026-05-05 23:09 | 23.00393 | 60.19300 | 38790 ft | 509 kts | 102° |
| 2026-05-05 23:10 | 22.99019 | 60.26839 | 38792 ft | 509 kts | 102° |
| 2026-05-05 23:10 | 22.97652 | 60.34327 | 38797 ft | 509 kts | 102° |
| 2026-05-05 23:11 | 22.96270 | 60.41860 | 38798 ft | 509 kts | 102° |
| 2026-05-05 23:11 | 22.94884 | 60.49393 | 38800 ft | 509 kts | 102° |
| 2026-05-05 23:12 | 22.93492 | 60.56932 | 38800 ft | 509 kts | 102° |
| 2026-05-05 23:12 | 22.92098 | 60.64461 | 38805 ft | 509 kts | 102° |
| 2026-05-05 23:13 | 22.90699 | 60.71994 | 38801 ft | 509 kts | 102° |
| 2026-05-05 23:13 | 22.89299 | 60.79517 | 38807 ft | 509 kts | 102° |
| 2026-05-05 23:14 | 22.87894 | 60.87041 | 38809 ft | 509 kts | 102° |
| 2026-05-05 23:14 | 22.86486 | 60.94565 | 38807 ft | 509 kts | 102° |
| 2026-05-05 23:15 | 22.85084 | 61.02039 | 38809 ft | 509 kts | 102° |
| 2026-05-05 23:15 | 22.83667 | 61.09565 | 38808 ft | 509 kts | 102° |
| 2026-05-05 23:16 | 22.82249 | 61.17084 | 38813 ft | 509 kts | 102° |
| 2026-05-05 23:16 | 22.80826 | 61.24604 | 38810 ft | 509 kts | 102° |
| 2026-05-05 23:17 | 22.79398 | 61.32129 | 38811 ft | 509 kts | 102° |
| 2026-05-05 23:17 | 22.77969 | 61.39644 | 38808 ft | 509 kts | 102° |
| 2026-05-05 23:18 | 22.76536 | 61.47157 | 38809 ft | 509 kts | 102° |
| 2026-05-05 23:18 | 22.75110 | 61.54612 | 38809 ft | 509 kts | 102° |
| 2026-05-05 23:19 | 22.73670 | 61.62127 | 38811 ft | 509 kts | 103° |
| 2026-05-05 23:19 | 22.72226 | 61.69634 | 38810 ft | 509 kts | 103° |
| 2026-05-05 23:20 | 22.70781 | 61.77134 | 38811 ft | 509 kts | 103° |
| 2026-05-05 23:20 | 22.69330 | 61.84643 | 38813 ft | 509 kts | 103° |
| 2026-05-05 23:21 | 22.67877 | 61.92141 | 38815 ft | 509 kts | 103° |
| 2026-05-05 23:21 | 22.66421 | 61.99637 | 38815 ft | 509 kts | 103° |
| 2026-05-05 23:22 | 22.64959 | 62.07140 | 38816 ft | 509 kts | 103° |
| 2026-05-05 23:22 | 22.63495 | 62.14640 | 38814 ft | 509 kts | 103° |
| 2026-05-05 23:23 | 22.62025 | 62.22144 | 38817 ft | 509 kts | 103° |
| 2026-05-05 23:23 | 22.60555 | 62.29637 | 38817 ft | 509 kts | 103° |
| 2026-05-05 23:24 | 22.59078 | 62.37140 | 38819 ft | 509 kts | 103° |
| 2026-05-05 23:24 | 22.57597 | 62.44644 | 38816 ft | 509 kts | 103° |
| 2026-05-05 23:25 | 22.56125 | 62.52090 | 38816 ft | 509 kts | 103° |
| 2026-05-05 23:25 | 22.54638 | 62.59584 | 38820 ft | 509 kts | 103° |
| 2026-05-05 23:26 | 22.53149 | 62.67076 | 38820 ft | 509 kts | 103° |
| 2026-05-05 23:26 | 22.51654 | 62.74576 | 38819 ft | 510 kts | 103° |
| 2026-05-05 23:27 | 22.50157 | 62.82068 | 38821 ft | 510 kts | 103° |
| 2026-05-05 23:27 | 22.48655 | 62.89564 | 38821 ft | 510 kts | 103° |
| 2026-05-05 23:28 | 22.47150 | 62.97059 | 38818 ft | 510 kts | 103° |
| 2026-05-05 23:28 | 22.45642 | 63.04553 | 38823 ft | 510 kts | 103° |
| 2026-05-05 23:29 | 22.43906 | 63.11920 | 38824 ft | 509 kts | 110° |
| 2026-05-05 23:29 | 22.41097 | 63.18928 | 38831 ft | 507 kts | 117° |
| 2026-05-05 23:30 | 22.37971 | 63.25760 | 38828 ft | 508 kts | 117° |
| 2026-05-05 23:30 | 22.34848 | 63.32610 | 38824 ft | 508 kts | 117° |
| 2026-05-05 23:31 | 22.31754 | 63.39474 | 38823 ft | 508 kts | 117° |
| 2026-05-05 23:31 | 22.28669 | 63.46349 | 38826 ft | 508 kts | 117° |
| 2026-05-05 23:32 | 22.25585 | 63.53216 | 38827 ft | 508 kts | 117° |
| 2026-05-05 23:32 | 22.22494 | 63.60083 | 38832 ft | 508 kts | 117° |
| 2026-05-05 23:33 | 22.19417 | 63.66908 | 38832 ft | 508 kts | 117° |
| 2026-05-05 23:33 | 22.16320 | 63.73765 | 38832 ft | 508 kts | 117° |
| 2026-05-05 23:34 | 22.13224 | 63.80611 | 38834 ft | 507 kts | 117° |
| 2026-05-05 23:34 | 22.10124 | 63.87457 | 38837 ft | 507 kts | 117° |
| 2026-05-05 23:35 | 22.07027 | 63.94288 | 38836 ft | 507 kts | 117° |
| 2026-05-05 23:35 | 22.03927 | 64.01114 | 38840 ft | 507 kts | 117° |
| 2026-05-05 23:36 | 22.00830 | 64.07927 | 38837 ft | 506 kts | 117° |
| 2026-05-05 23:36 | 21.97724 | 64.14749 | 38838 ft | 506 kts | 117° |
| 2026-05-05 23:37 | 21.94621 | 64.21556 | 38841 ft | 506 kts | 117° |
| 2026-05-05 23:37 | 21.91517 | 64.28355 | 38841 ft | 506 kts | 117° |
| 2026-05-05 23:38 | 21.88431 | 64.35108 | 38843 ft | 505 kts | 117° |
| 2026-05-05 23:38 | 21.85321 | 64.41903 | 38842 ft | 505 kts | 117° |
| 2026-05-05 23:39 | 21.82214 | 64.48682 | 38841 ft | 505 kts | 117° |
| 2026-05-05 23:39 | 21.79103 | 64.55460 | 38847 ft | 505 kts | 117° |
| 2026-05-05 23:40 | 21.75989 | 64.62237 | 38848 ft | 505 kts | 117° |
| 2026-05-05 23:40 | 21.72879 | 64.68997 | 38847 ft | 505 kts | 117° |
| 2026-05-05 23:41 | 21.70289 | 64.74620 | 38849 ft | 504 kts | 117° |
| 2026-05-05 23:41 | 21.67171 | 64.81380 | 38846 ft | 504 kts | 117° |
| 2026-05-05 23:42 | 21.64051 | 64.88134 | 38848 ft | 504 kts | 117° |
| 2026-05-05 23:42 | 21.60930 | 64.94884 | 38849 ft | 505 kts | 117° |
| 2026-05-05 23:43 | 21.57799 | 65.01645 | 38850 ft | 505 kts | 117° |
| 2026-05-05 23:43 | 21.54667 | 65.08400 | 38850 ft | 505 kts | 117° |
| 2026-05-05 23:44 | 21.51536 | 65.15145 | 38854 ft | 505 kts | 117° |
| 2026-05-05 23:44 | 21.48417 | 65.21854 | 38852 ft | 505 kts | 117° |
| 2026-05-05 23:45 | 21.45279 | 65.28595 | 38851 ft | 505 kts | 117° |
| 2026-05-05 23:45 | 21.42137 | 65.35339 | 38850 ft | 505 kts | 117° |
| 2026-05-05 23:46 | 21.38992 | 65.42077 | 38853 ft | 505 kts | 117° |
| 2026-05-05 23:46 | 21.35848 | 65.48805 | 38855 ft | 505 kts | 117° |
| 2026-05-05 23:47 | 21.32701 | 65.55533 | 38854 ft | 504 kts | 117° |
| 2026-05-05 23:47 | 21.29552 | 65.62255 | 38855 ft | 504 kts | 118° |
| 2026-05-05 23:48 | 21.26401 | 65.68973 | 38853 ft | 504 kts | 118° |
| 2026-05-05 23:48 | 21.23246 | 65.75693 | 38857 ft | 504 kts | 118° |
| 2026-05-05 23:49 | 21.20091 | 65.82403 | 38857 ft | 504 kts | 118° |
| 2026-05-05 23:49 | 21.16932 | 65.89112 | 38854 ft | 504 kts | 118° |
| 2026-05-05 23:50 | 21.13774 | 65.95814 | 38856 ft | 504 kts | 118° |
| 2026-05-05 23:50 | 21.10625 | 66.02517 | 38858 ft | 504 kts | 117° |
| 2026-05-05 23:51 | 21.07555 | 66.09263 | 38855 ft | 504 kts | 117° |
| 2026-05-05 23:51 | 21.04506 | 66.16022 | 38855 ft | 504 kts | 117° |
| 2026-05-05 23:52 | 21.01452 | 66.22761 | 38856 ft | 504 kts | 117° |
| 2026-05-05 23:52 | 20.98399 | 66.29466 | 38858 ft | 504 kts | 117° |
| 2026-05-05 23:53 | 20.95308 | 66.36239 | 38858 ft | 504 kts | 117° |
| 2026-05-05 23:53 | 20.92252 | 66.42926 | 38857 ft | 504 kts | 117° |
| 2026-05-05 23:54 | 20.89168 | 66.49668 | 38857 ft | 504 kts | 117° |
| 2026-05-05 23:54 | 20.86086 | 66.56396 | 38858 ft | 504 kts | 117° |
| 2026-05-05 23:55 | 20.83001 | 66.63123 | 38859 ft | 504 kts | 117° |
| 2026-05-05 23:55 | 20.79914 | 66.69848 | 38856 ft | 503 kts | 117° |
| 2026-05-05 23:56 | 20.76826 | 66.76564 | 38859 ft | 503 kts | 117° |
| 2026-05-05 23:56 | 20.73738 | 66.83274 | 38857 ft | 503 kts | 117° |
| 2026-05-05 23:57 | 20.70645 | 66.89985 | 38859 ft | 503 kts | 117° |
| 2026-05-05 23:57 | 20.67571 | 66.96647 | 38857 ft | 503 kts | 117° |
| 2026-05-05 23:58 | 20.64473 | 67.03352 | 38858 ft | 503 kts | 117° |
| 2026-05-05 23:58 | 20.61375 | 67.10048 | 38858 ft | 503 kts | 117° |
| 2026-05-05 23:59 | 20.58271 | 67.16750 | 38856 ft | 503 kts | 117° |
| 2026-05-05 23:59 | 20.55159 | 67.23460 | 38859 ft | 503 kts | 117° |
| 2026-05-06 00:00 | 20.52049 | 67.30159 | 38857 ft | 503 kts | 117° |
| 2026-05-06 00:00 | 20.48955 | 67.36814 | 38858 ft | 503 kts | 117° |
| 2026-05-06 00:01 | 20.45840 | 67.43505 | 38858 ft | 503 kts | 117° |
| 2026-05-06 00:01 | 20.42722 | 67.50197 | 38857 ft | 504 kts | 117° |
| 2026-05-06 00:02 | 20.39600 | 67.56887 | 38858 ft | 504 kts | 117° |
| 2026-05-06 00:02 | 20.36482 | 67.63562 | 38858 ft | 503 kts | 117° |
| 2026-05-06 00:03 | 20.33358 | 67.70240 | 38858 ft | 503 kts | 117° |
| 2026-05-06 00:03 | 20.30232 | 67.76915 | 38856 ft | 503 kts | 117° |
| 2026-05-06 00:04 | 20.27103 | 67.83589 | 38854 ft | 503 kts | 117° |
| 2026-05-06 00:04 | 20.23988 | 67.90224 | 38859 ft | 503 kts | 117° |
| 2026-05-06 00:05 | 20.19288 | 68.00221 | 38862 ft | 503 kts | 117° |
| 2026-05-06 00:06 | 20.16150 | 68.06886 | 38855 ft | 503 kts | 117° |
| 2026-05-06 00:06 | 20.13011 | 68.13543 | 38858 ft | 503 kts | 117° |
| 2026-05-06 00:07 | 20.09870 | 68.20199 | 38861 ft | 503 kts | 117° |
| 2026-05-06 00:07 | 20.06721 | 68.26863 | 38858 ft | 503 kts | 117° |